Observation data for Dell City 1N on 02/11/2018      Previous  Date  Next       Current Mesonet Observations  Soil Data  Daily Summary Page  Observations in Plain Language
KDC1 110600Z 16002KT 13/M06 A2982 RMK A01 T01301055  RH  027%=      5-min Rain = 0
KDC1 110601Z 17002KT 13/M06 A2982 RMK A01 T01301056  RH  027%=      5-min Rain = 0
KDC1 110602Z 18002KT 13/M06 A2982 RMK A01 T01291056  RH  027%=      5-min Rain = 0
KDC1 110603Z 16002KT 13/M06 A2982 RMK A01 T01281055  RH  027%=      5-min Rain = 0
KDC1 110604Z 17002KT 13/M06 A2982 RMK A01 T01291055  RH  027%=      5-min Rain = 0
KDC1 110605Z 19001KT 13/M06 A2982 RMK A01 T01311055  RH  027%=      5-min Rain = 0
KDC1 110606Z 17001KT 13/M06 A2982 RMK A01 T01321055  RH  027%=      5-min Rain = 0
KDC1 110607Z 16001KT 13/M06 A2982 RMK A01 T01321056  RH  027%=      5-min Rain = 0
KDC1 110608Z 17002KT 13/M06 A2982 RMK A01 T01331056  RH  026%=      5-min Rain = 0
KDC1 110609Z 16003KT 14/M06 A2982 RMK A01 T01351055  RH  026%=      5-min Rain = 0
KDC1 110610Z 16002KT 14/M05 A2982 RMK A01 T01381053  RH  026%=      5-min Rain = 0
KDC1 110611Z 16003KT 14/M05 A2982 RMK A01 T01411053  RH  026%=      5-min Rain = 0
KDC1 110612Z 17003KT 14/M05 A2982 RMK A01 T01431054  RH  025%=      5-min Rain = 0
KDC1 110613Z 16003KT 14/M05 A2982 RMK A01 T01441054  RH  025%=      5-min Rain = 0
KDC1 110614Z 16003KT 14/M05 A2982 RMK A01 T01441054  RH  025%=      5-min Rain = 0
KDC1 110615Z 16003KT 14/M05 A2982 RMK A01 T01441054  RH  025%=      5-min Rain = 0
KDC1 110616Z 16002KT 14/M06 A2982 RMK A01 T01431055  RH  025%=      5-min Rain = 0
KDC1 110617Z 19001KT 14/M06 A2982 RMK A01 T01411055  RH  025%=      5-min Rain = 0
KDC1 110618Z 17001KT 14/M06 A2982 RMK A01 T01401055  RH  025%=      5-min Rain = 0
KDC1 110619Z 16000KT 14/M06 A2982 RMK A01 T01401055  RH  025%=      5-min Rain = 0
KDC1 110620Z 18000KT 14/M05 A2982 RMK A01 T01391054  RH  026%=      5-min Rain = 0
KDC1 110621Z 18001KT 14/M05 A2982 RMK A01 T01401053  RH  026%=      5-min Rain = 0
KDC1 110622Z 15002KT 14/M05 A2982 RMK A01 T01411052  RH  026%=      5-min Rain = 0
KDC1 110623Z 17002KT 14/M05 A2982 RMK A01 T01421051  RH  026%=      5-min Rain = 0
KDC1 110624Z 17002KT 14/M05 A2982 RMK A01 T01421052  RH  026%=      5-min Rain = 0
KDC1 110625Z 18002KT 14/M05 A2982 RMK A01 T01431052  RH  026%=      5-min Rain = 0
KDC1 110626Z 17001KT 15/M05 A2982 RMK A01 T01451052  RH  025%=      5-min Rain = 0
KDC1 110627Z 17001KT 14/M05 A2982 RMK A01 T01441054  RH  025%=      5-min Rain = 0
KDC1 110628Z 15002KT 14/M05 A2982 RMK A01 T01421054  RH  025%=      5-min Rain = 0
KDC1 110629Z 14002KT 14/M06 A2982 RMK A01 T01401055  RH  026%=      5-min Rain = 0
KDC1 110630Z 14001KT 14/M06 A2982 RMK A01 T01371056  RH  026%=      5-min Rain = 0
KDC1 110631Z 14002KT 13/M06 A2982 RMK A01 T01341056  RH  026%=      5-min Rain = 0
KDC1 110632Z 13001KT 13/M06 A2982 RMK A01 T01331056  RH  026%=      5-min Rain = 0
KDC1 110633Z 13002KT 13/M06 A2982 RMK A01 T01301060  RH  026%=      5-min Rain = 0
KDC1 110634Z 13002KT 13/M06 A2982 RMK A01 T01271057  RH  027%=      5-min Rain = 0
KDC1 110635Z 13001KT 13/M06 A2982 RMK A01 T01261057  RH  027%=      5-min Rain = 0
KDC1 110636Z 12002KT 13/M06 A2982 RMK A01 T01271055  RH  028%=      5-min Rain = 0
KDC1 110637Z 10002KT 13/M05 A2982 RMK A01 T01291054  RH  027%=      5-min Rain = 0
KDC1 110638Z 10001KT 13/M05 A2983 RMK A01 T01301054  RH  027%=      5-min Rain = 0
KDC1 110639Z 12001KT 13/M05 A2983 RMK A01 T01311054  RH  027%=      5-min Rain = 0
KDC1 110640Z 13001KT 13/M06 A2983 RMK A01 T01301057  RH  027%=      5-min Rain = 0
KDC1 110641Z 12001KT 13/M06 A2983 RMK A01 T01291057  RH  027%=      5-min Rain = 0
KDC1 110642Z 12002KT 13/M06 A2983 RMK A01 T01281055  RH  027%=      5-min Rain = 0
KDC1 110643Z 13002KT 13/M06 A2983 RMK A01 T01301055  RH  027%=      5-min Rain = 0
KDC1 110644Z 14002KT 13/M06 A2983 RMK A01 T01311055  RH  027%=      5-min Rain = 0
KDC1 110645Z 13003KT 13/M06 A2983 RMK A01 T01311055  RH  027%=      5-min Rain = 0
KDC1 110646Z 15002KT 13/M06 A2983 RMK A01 T01311055  RH  027%=      5-min Rain = 0
KDC1 110647Z 15001KT 13/M06 A2983 RMK A01 T01311055  RH  027%=      5-min Rain = 0
KDC1 110648Z 12001KT 13/M06 A2983 RMK A01 T01301056  RH  027%=      5-min Rain = 0
KDC1 110649Z 07001KT 13/M06 A2983 RMK A01 T01271055  RH  028%=      5-min Rain = 0
KDC1 110650Z 07000KT 13/M06 A2983 RMK A01 T01251055  RH  028%=      5-min Rain = 0
KDC1 110651Z 17001KT 12/M06 A2983 RMK A01 T01241056  RH  028%=      5-min Rain = 0
KDC1 110652Z 16002KT 12/M06 A2983 RMK A01 T01221057  RH  028%=      5-min Rain = 0
KDC1 110653Z 16002KT 12/M06 A2983 RMK A01 T01201056  RH  029%=      5-min Rain = 0
KDC1 110654Z 15002KT 12/M06 A2983 RMK A01 T01201055  RH  029%=      5-min Rain = 0
KDC1 110655Z 14003KT 12/M06 A2983 RMK A01 T01201055  RH  029%=      5-min Rain = 0
KDC1 110656Z 16002KT 12/M06 A2984 RMK A01 T01211055  RH  029%=      5-min Rain = 0
KDC1 110657Z 15003KT 12/M05 A2984 RMK A01 T01231053  RH  029%=      5-min Rain = 0
KDC1 110658Z 16004KT 13/M05 A2984 RMK A01 T01291050  RH  028%=      5-min Rain = 0
KDC1 110659Z 19002KT 14/M05 A2984 RMK A01 T01391048  RH  027%=      5-min Rain = 0
KDC1 110700Z 16003KT 15/M05 A2984 RMK A01 T01471048  RH  026%=      5-min Rain = 0
KDC1 110701Z 18002KT 15/M05 A2984 RMK A01 T01491051  RH  025%=      5-min Rain = 0
KDC1 110702Z 20002KT 15/M05 A2984 RMK A01 T01501051  RH  025%=      5-min Rain = 0
KDC1 110703Z 19002KT 15/M05 A2984 RMK A01 T01491052  RH  025%=      5-min Rain = 0
KDC1 110704Z 19001KT 15/M05 A2984 RMK A01 T01491052  RH  025%=      5-min Rain = 0
KDC1 110705Z 21001KT 15/M05 A2984 RMK A01 T01491052  RH  024%=      5-min Rain = 0
KDC1 110706Z 29000KT 15/M05 A2984 RMK A01 T01481052  RH  025%=      5-min Rain = 0
KDC1 110707Z 30000KT 15/M05 A2984 RMK A01 T01481050  RH  025%=      5-min Rain = 0
KDC1 110708Z 02000KT 15/M05 A2984 RMK A01 T01461051  RH  025%=      5-min Rain = 0
KDC1 110709Z 00000KT 14/M05 A2984 RMK A01 T01441051  RH  026%=      5-min Rain = 0
KDC1 110710Z 00000KT 14/M05 A2984 RMK A01 T01411051  RH  026%=      5-min Rain = 0
KDC1 110711Z 27001KT 14/M05 A2984 RMK A01 T01431050  RH  026%=      5-min Rain = 0
KDC1 110712Z 29000KT 14/M05 A2984 RMK A01 T01441050  RH  026%=      5-min Rain = 0
KDC1 110713Z 00000KT 15/M05 A2984 RMK A01 T01451049  RH  026%=      5-min Rain = 0
KDC1 110714Z 28000KT 15/M05 A2984 RMK A01 T01471050  RH  025%=      5-min Rain = 0
KDC1 110715Z 26000KT 15/M05 A2984 RMK A01 T01471050  RH  025%=      5-min Rain = 0
KDC1 110716Z 06000KT 15/M05 A2984 RMK A01 T01481051  RH  025%=      5-min Rain = 0
KDC1 110717Z 05001KT 15/M05 A2984 RMK A01 T01501050  RH  025%=      5-min Rain = 0
KDC1 110718Z 05001KT 15/M05 A2984 RMK A01 T01521050  RH  024%=      5-min Rain = 0
KDC1 110719Z 04000KT 15/M05 A2984 RMK A01 T01541050  RH  024%=      5-min Rain = 0
KDC1 110720Z 11000KT 15/M05 A2984 RMK A01 T01541052  RH  024%=      5-min Rain = 0
KDC1 110721Z 13001KT 15/M06 A2984 RMK A01 T01481056  RH  024%=      5-min Rain = 0
KDC1 110722Z 14000KT 14/M06 A2984 RMK A01 T01431055  RH  025%=      5-min Rain = 0
KDC1 110723Z 35001KT 14/M05 A2984 RMK A01 T01391054  RH  026%=      5-min Rain = 0
KDC1 110724Z 02001KT 13/M05 A2984 RMK A01 T01341050  RH  027%=      5-min Rain = 0
KDC1 110725Z 02001KT 13/M05 A2984 RMK A01 T01331050  RH  028%=      5-min Rain = 0
KDC1 110726Z 33002KT 13/M05 A2984 RMK A01 T01311050  RH  028%=      5-min Rain = 0
KDC1 110727Z 34004KT 13/M05 A2984 RMK A01 T01281048  RH  029%=      5-min Rain = 0
KDC1 110728Z 35002KT 13/M04 A2984 RMK A01 T01311041  RH  030%=      5-min Rain = 0
KDC1 110729Z 02001KT 13/M04 A2984 RMK A01 T01341043  RH  029%=      5-min Rain = 0
KDC1 110730Z 27002KT 14/M04 A2984 RMK A01 T01351043  RH  029%=      5-min Rain = 0
KDC1 110731Z 27001KT 13/M04 A2984 RMK A01 T01331044  RH  029%=      5-min Rain = 0
KDC1 110732Z 23003KT 14/M04 A2985 RMK A01 T01351044  RH  028%=      5-min Rain = 0
KDC1 110733Z 23002KT 14/M05 A2984 RMK A01 T01391046  RH  027%=      5-min Rain = 0
KDC1 110734Z 31003KT 15/M05 A2984 RMK A01 T01461045  RH  026%=      5-min Rain = 0
KDC1 110735Z 24002KT 16/M05 A2984 RMK A01 T01561045  RH  025%=      5-min Rain = 0
KDC1 110736Z 25003KT 16/M05 A2984 RMK A01 T01621045  RH  024%=      5-min Rain = 0
KDC1 110737Z 27004KT 16/M05 A2985 RMK A01 T01591046  RH  024%=      5-min Rain = 0
KDC1 110738Z 27003KT 15/M05 A2985 RMK A01 T01531047  RH  025%=      5-min Rain = 0
KDC1 110739Z 28004KT 15/M05 A2985 RMK A01 T01541047  RH  025%=      5-min Rain = 0
KDC1 110740Z 26005KT 15/M05 A2985 RMK A01 T01531047  RH  025%=      5-min Rain = 0
KDC1 110741Z 26005KT 15/M05 A2985 RMK A01 T01501046  RH  026%=      5-min Rain = 0
KDC1 110742Z 26006KT 15/M05 A2985 RMK A01 T01501045  RH  026%=      5-min Rain = 0
KDC1 110743Z 25006KT 15/M05 A2985 RMK A01 T01491045  RH  026%=      5-min Rain = 0
KDC1 110744Z 24004KT 15/M04 A2985 RMK A01 T01471044  RH  026%=      5-min Rain = 0
KDC1 110745Z 24004KT 15/M05 A2985 RMK A01 T01461045  RH  026%=      5-min Rain = 0
KDC1 110746Z 23004KT 15/M05 A2985 RMK A01 T01461045  RH  026%=      5-min Rain = 0
KDC1 110747Z 21003KT 15/M04 A2985 RMK A01 T01471044  RH  026%=      5-min Rain = 0
KDC1 110748Z 23003KT 15/M04 A2985 RMK A01 T01471044  RH  026%=      5-min Rain = 0
KDC1 110749Z 22004KT 15/M04 A2985 RMK A01 T01461044  RH  027%=      5-min Rain = 0
KDC1 110750Z 21003KT 15/M04 A2985 RMK A01 T01471043  RH  027%=      5-min Rain = 0
KDC1 110751Z 22004KT 15/M04 A2985 RMK A01 T01491043  RH  026%=      5-min Rain = 0
KDC1 110752Z 21004KT 15/M04 A2985 RMK A01 T01501043  RH  026%=      5-min Rain = 0
KDC1 110753Z 22003KT 15/M04 A2985 RMK A01 T01511043  RH  026%=      5-min Rain = 0
KDC1 110754Z 21004KT 15/M04 A2985 RMK A01 T01511042  RH  026%=      5-min Rain = 0
KDC1 110755Z 21003KT 15/M04 A2985 RMK A01 T01501042  RH  026%=      5-min Rain = 0
KDC1 110756Z 23003KT 15/M04 A2985 RMK A01 T01501042  RH  026%=      5-min Rain = 0
KDC1 110757Z 22004KT 15/M04 A2985 RMK A01 T01491042  RH  026%=      5-min Rain = 0
KDC1 110758Z 21004KT 15/M04 A2985 RMK A01 T01491042  RH  026%=      5-min Rain = 0
KDC1 110759Z 23004KT 15/M04 A2985 RMK A01 T01501042  RH  026%=      5-min Rain = 0
KDC1 110800Z 23003KT 15/M04 A2985 RMK A01 T01511043  RH  026%=      5-min Rain = 0
KDC1 110801Z 22004KT 15/M04 A2985 RMK A01 T01521043  RH  026%=      5-min Rain = 0
KDC1 110802Z 23004KT 15/M04 A2985 RMK A01 T01531042  RH  026%=      5-min Rain = 0
KDC1 110803Z 23004KT 15/M04 A2985 RMK A01 T01531042  RH  026%=      5-min Rain = 0
KDC1 110804Z 22003KT 15/M04 A2985 RMK A01 T01531042  RH  026%=      5-min Rain = 0
KDC1 110805Z 23002KT 15/M04 A2985 RMK A01 T01531042  RH  026%=      5-min Rain = 0
KDC1 110806Z 25003KT 15/M04 A2985 RMK A01 T01521042  RH  026%=      5-min Rain = 0
KDC1 110807Z 24003KT 15/M04 A2985 RMK A01 T01511042  RH  026%=      5-min Rain = 0
KDC1 110808Z 23003KT 15/M04 A2985 RMK A01 T01491041  RH  027%=      5-min Rain = 0
KDC1 110809Z 22001KT 15/M04 A2985 RMK A01 T01481041  RH  027%=      5-min Rain = 0
KDC1 110810Z 24002KT 14/M04 A2985 RMK A01 T01431038  RH  028%=      5-min Rain = 0
KDC1 110811Z 24002KT 14/M04 A2985 RMK A01 T01411041  RH  028%=      5-min Rain = 0
KDC1 110812Z 24003KT 14/M04 A2985 RMK A01 T01401040  RH  028%=      5-min Rain = 0
KDC1 110813Z 23003KT 14/M04 A2985 RMK A01 T01401040  RH  028%=      5-min Rain = 0
KDC1 110814Z 23002KT 14/M04 A2985 RMK A01 T01421040  RH  028%=      5-min Rain = 0
KDC1 110815Z 24002KT 14/M04 A2985 RMK A01 T01421040  RH  028%=      5-min Rain = 0
KDC1 110816Z 23002KT 14/M04 A2985 RMK A01 T01421040  RH  028%=      5-min Rain = 0
KDC1 110817Z 22001KT 14/M04 A2985 RMK A01 T01411039  RH  028%=      5-min Rain = 0
KDC1 110818Z 22002KT 14/M04 A2985 RMK A01 T01411037  RH  029%=      5-min Rain = 0
KDC1 110819Z 23003KT 14/M04 A2985 RMK A01 T01401037  RH  029%=      5-min Rain = 0
KDC1 110820Z 22003KT 14/M04 A2985 RMK A01 T01401038  RH  029%=      5-min Rain = 0
KDC1 110821Z 24003KT 14/M04 A2985 RMK A01 T01411039  RH  029%=      5-min Rain = 0
KDC1 110822Z 23002KT 14/M04 A2985 RMK A01 T01421039  RH  028%=      5-min Rain = 0
KDC1 110823Z 23002KT 14/M04 A2985 RMK A01 T01421038  RH  029%=      5-min Rain = 0
KDC1 110824Z 20002KT 14/M04 A2985 RMK A01 T01421037  RH  029%=      5-min Rain = 0
KDC1 110825Z 19002KT 14/M04 A2985 RMK A01 T01421040  RH  028%=      5-min Rain = 0
KDC1 110826Z 20003KT 14/M04 A2985 RMK A01 T01421040  RH  028%=      5-min Rain = 0
KDC1 110827Z 20001KT 14/M04 A2985 RMK A01 T01401042  RH  028%=      5-min Rain = 0
KDC1 110828Z 18001KT 14/M04 A2985 RMK A01 T01371042  RH  029%=      5-min Rain = 0
KDC1 110829Z 16001KT 14/M04 A2985 RMK A01 T01351041  RH  029%=      5-min Rain = 0
KDC1 110830Z 18001KT 13/M04 A2985 RMK A01 T01311035  RH  031%=      5-min Rain = 0
KDC1 110831Z 00000KT 13/M03 A2985 RMK A01 T01281031  RH  033%=      5-min Rain = 0
KDC1 110832Z 10001KT 13/M03 A2985 RMK A01 T01261032  RH  033%=      5-min Rain = 0
KDC1 110833Z 00000KT 13/M04 A2985 RMK A01 T01261037  RH  032%=      5-min Rain = 0
KDC1 110834Z 00000KT 13/M03 A2985 RMK A01 T01261034  RH  033%=      5-min Rain = 0
KDC1 110835Z 30000KT 13/M04 A2985 RMK A01 T01261035  RH  032%=      5-min Rain = 0
KDC1 110836Z 31000KT 13/M03 A2985 RMK A01 T01261030  RH  034%=      5-min Rain = 0
KDC1 110837Z 23000KT 13/M03 A2985 RMK A01 T01261030  RH  034%=      5-min Rain = 0
KDC1 110838Z 26002KT 13/M03 A2985 RMK A01 T01261030  RH  034%=      5-min Rain = 0
KDC1 110839Z 25002KT 13/M03 A2985 RMK A01 T01251033  RH  033%=      5-min Rain = 0
KDC1 110840Z 23003KT 12/M03 A2985 RMK A01 T01231031  RH  034%=      5-min Rain = 0
KDC1 110841Z 24002KT 12/M03 A2985 RMK A01 T01221029  RH  035%=      5-min Rain = 0
KDC1 110842Z 28002KT 12/M03 A2985 RMK A01 T01201029  RH  035%=      5-min Rain = 0
KDC1 110843Z 26002KT 12/M03 A2985 RMK A01 T01191033  RH  035%=      5-min Rain = 0
KDC1 110844Z 26003KT 12/M03 A2985 RMK A01 T01181033  RH  035%=      5-min Rain = 0
KDC1 110845Z 27002KT 11/M03 A2985 RMK A01 T01131030  RH  036%=      5-min Rain = 0
KDC1 110846Z 24002KT 11/M03 A2985 RMK A01 T01091031  RH  037%=      5-min Rain = 0
KDC1 110847Z 24002KT 11/M03 A2985 RMK A01 T01091033  RH  037%=      5-min Rain = 0
KDC1 110848Z 27003KT 11/M03 A2985 RMK A01 T01101034  RH  036%=      5-min Rain = 0
KDC1 110849Z 24004KT 11/M04 A2985 RMK A01 T01131037  RH  035%=      5-min Rain = 0
KDC1 110850Z 29002KT 12/M04 A2985 RMK A01 T01181039  RH  033%=      5-min Rain = 0
KDC1 110851Z 28004KT 12/M04 A2985 RMK A01 T01181035  RH  034%=      5-min Rain = 0
KDC1 110852Z 25004KT 11/M04 A2985 RMK A01 T01141035  RH  035%=      5-min Rain = 0
KDC1 110853Z 24004KT 11/M04 A2985 RMK A01 T01111038  RH  035%=      5-min Rain = 0
KDC1 110854Z 22005KT 11/M04 A2985 RMK A01 T01121038  RH  035%=      5-min Rain = 0
KDC1 110855Z 23005KT 12/M04 A2985 RMK A01 T01151039  RH  034%=      5-min Rain = 0
KDC1 110856Z 28003KT 12/M04 A2985 RMK A01 T01191039  RH  033%=      5-min Rain = 0
KDC1 110857Z 26004KT 12/M04 A2985 RMK A01 T01201037  RH  033%=      5-min Rain = 0
KDC1 110858Z 26004KT 12/M04 A2985 RMK A01 T01231036  RH  033%=      5-min Rain = 0
KDC1 110859Z 25004KT 13/M03 A2985 RMK A01 T01261034  RH  033%=      5-min Rain = 0
KDC1 110900Z 24005KT 13/M04 A2985 RMK A01 T01251035  RH  033%=      5-min Rain = 0
KDC1 110901Z 23004KT 13/M04 A2985 RMK A01 T01251039  RH  032%=      5-min Rain = 0
KDC1 110902Z 25003KT 13/M04 A2985 RMK A01 T01321040  RH  030%=      5-min Rain = 0
KDC1 110903Z 24003KT 14/M04 A2985 RMK A01 T01371040  RH  029%=      5-min Rain = 0
KDC1 110904Z 23004KT 14/M04 A2985 RMK A01 T01381040  RH  029%=      5-min Rain = 0
KDC1 110905Z 24003KT 14/M04 A2985 RMK A01 T01381039  RH  029%=      5-min Rain = 0
KDC1 110906Z 24005KT 14/M04 A2985 RMK A01 T01391038  RH  029%=      5-min Rain = 0
KDC1 110907Z 24005KT 14/M04 A2986 RMK A01 T01391035  RH  030%=      5-min Rain = 0
KDC1 110908Z 23004KT 14/M03 A2985 RMK A01 T01351031  RH  031%=      5-min Rain = 0
KDC1 110909Z 23004KT 13/M03 A2985 RMK A01 T01311032  RH  032%=      5-min Rain = 0
KDC1 110910Z 23005KT 13/M03 A2986 RMK A01 T01281031  RH  033%=      5-min Rain = 0
KDC1 110911Z 22004KT 12/M03 A2986 RMK A01 T01241030  RH  034%=      5-min Rain = 0
KDC1 110912Z 22005KT 12/M03 A2985 RMK A01 T01211031  RH  034%=      5-min Rain = 0
KDC1 110913Z 21005KT 12/M03 A2985 RMK A01 T01241033  RH  033%=      5-min Rain = 0
KDC1 110914Z 23005KT 13/M03 A2985 RMK A01 T01261033  RH  033%=      5-min Rain = 0
KDC1 110915Z 22003KT 13/M03 A2986 RMK A01 T01271034  RH  032%=      5-min Rain = 0
KDC1 110916Z 22004KT 13/M04 A2986 RMK A01 T01271035  RH  032%=      5-min Rain = 0
KDC1 110917Z 23005KT 13/M04 A2986 RMK A01 T01261036  RH  032%=      5-min Rain = 0
KDC1 110918Z 21004KT 13/M04 A2985 RMK A01 T01271038  RH  031%=      5-min Rain = 0
KDC1 110919Z 22005KT 13/M04 A2985 RMK A01 T01281039  RH  031%=      5-min Rain = 0
KDC1 110920Z 23004KT 13/M04 A2986 RMK A01 T01281039  RH  031%=      5-min Rain = 0
KDC1 110921Z 23004KT 13/M04 A2986 RMK A01 T01271039  RH  031%=      5-min Rain = 0
KDC1 110922Z 24003KT 13/M04 A2986 RMK A01 T01261039  RH  031%=      5-min Rain = 0
KDC1 110923Z 23003KT 12/M04 A2986 RMK A01 T01211036  RH  033%=      5-min Rain = 0
KDC1 110924Z 23004KT 12/M04 A2986 RMK A01 T01161037  RH  034%=      5-min Rain = 0
KDC1 110925Z 23003KT 11/M04 A2986 RMK A01 T01141038  RH  034%=      5-min Rain = 0
KDC1 110926Z 23003KT 11/M04 A2986 RMK A01 T01121038  RH  035%=      5-min Rain = 0
KDC1 110927Z 24003KT 11/M04 A2986 RMK A01 T01111038  RH  035%=      5-min Rain = 0
KDC1 110928Z 23004KT 11/M03 A2986 RMK A01 T01101034  RH  036%=      5-min Rain = 0
KDC1 110929Z 23004KT 11/M03 A2986 RMK A01 T01091034  RH  037%=      5-min Rain = 0
KDC1 110930Z 23004KT 11/M04 A2986 RMK A01 T01091036  RH  036%=      5-min Rain = 0
KDC1 110931Z 23004KT 11/M04 A2986 RMK A01 T01131037  RH  035%=      5-min Rain = 0
KDC1 110932Z 23004KT 12/M04 A2986 RMK A01 T01151037  RH  034%=      5-min Rain = 0
KDC1 110933Z 24004KT 12/M04 A2986 RMK A01 T01171038  RH  034%=      5-min Rain = 0
KDC1 110934Z 24004KT 12/M04 A2986 RMK A01 T01171035  RH  034%=      5-min Rain = 0
KDC1 110935Z 26005KT 11/M04 A2986 RMK A01 T01141035  RH  035%=      5-min Rain = 0
KDC1 110936Z 26005KT 11/M03 A2986 RMK A01 T01141031  RH  036%=      5-min Rain = 0
KDC1 110937Z 26005KT 11/M03 A2986 RMK A01 T01141030  RH  036%=      5-min Rain = 0
KDC1 110938Z 26005KT 12/M03 A2986 RMK A01 T01161029  RH  036%=      5-min Rain = 0
KDC1 110939Z 27005KT 12/M03 A2986 RMK A01 T01171025  RH  037%=      5-min Rain = 0
KDC1 110940Z 27004KT 11/M02 A2986 RMK A01 T01131023  RH  039%=      5-min Rain = 0
KDC1 110941Z 28004KT 11/M02 A2986 RMK A01 T01061020  RH  041%=      5-min Rain = 0
KDC1 110942Z 28004KT 10/M02 A2986 RMK A01 T01021020  RH  042%=      5-min Rain = 0
KDC1 110943Z 29006KT 10/M02 A2986 RMK A01 T01001023  RH  042%=      5-min Rain = 0
KDC1 110944Z 30004KT 11/M02 A2986 RMK A01 T01051024  RH  040%=      5-min Rain = 0
KDC1 110945Z 31004KT 11/M02 A2986 RMK A01 T01061020  RH  041%=      5-min Rain = 0
KDC1 110946Z 34003KT 10/M02 A2986 RMK A01 T01041024  RH  041%=      5-min Rain = 0
KDC1 110947Z 35004KT 10/M03 A2986 RMK A01 T01031028  RH  040%=      5-min Rain = 0
KDC1 110948Z 33006KT 10/M03 A2986 RMK A01 T01021030  RH  039%=      5-min Rain = 0
KDC1 110949Z 34005KT 10/M03 A2986 RMK A01 T01041032  RH  038%=      5-min Rain = 0
KDC1 110950Z 35006KT 11/M03 A2986 RMK A01 T01061034  RH  037%=      5-min Rain = 0
KDC1 110951Z 35007KT 11/M04 A2986 RMK A01 T01071037  RH  036%=      5-min Rain = 0
KDC1 110952Z 01009KT 11/M04 A2986 RMK A01 T01091040  RH  035%=      5-min Rain = 0
KDC1 110953Z 02010KT 11/M04 A2987 RMK A01 T01111040  RH  034%=      5-min Rain = 0
KDC1 110954Z 02010KT 11/M04 A2987 RMK A01 T01071039  RH  035%=      5-min Rain = 0
KDC1 110955Z 03011KT 10/M04 A2987 RMK A01 T01001041  RH  037%=      5-min Rain = 0
KDC1 110956Z 03014KT 10/M04 A2987 RMK A01 T00951042  RH  038%=      5-min Rain = 0
KDC1 110957Z 03013KT 09/M05 A2987 RMK A01 T00941047  RH  037%=      5-min Rain = 0
KDC1 110958Z 03009KT 09/M05 A2987 RMK A01 T00931048  RH  037%=      5-min Rain = 0
KDC1 110959Z 03009KT 09/M05 A2987 RMK A01 T00911048  RH  037%=      5-min Rain = 0
KDC1 111000Z 03010KT 09/M05 A2987 RMK A01 T00891050  RH  037%=      5-min Rain = 0
KDC1 111001Z 03011KT 09/M05 A2987 RMK A01 T00881053  RH  036%=      5-min Rain = 0
KDC1 111002Z 03012KT 09/M06 A2987 RMK A01 T00871055  RH  036%=      5-min Rain = 0
KDC1 111003Z 03011KT 09/M06 A2987 RMK A01 T00861056  RH  036%=      5-min Rain = 0
KDC1 111004Z 02011KT 09/M06 A2987 RMK A01 T00851057  RH  036%=      5-min Rain = 0
KDC1 111005Z 01009KT 09/M06 A2987 RMK A01 T00861057  RH  036%=      5-min Rain = 0
KDC1 111006Z 01012KT 09/M06 A2987 RMK A01 T00861056  RH  036%=      5-min Rain = 0
KDC1 111007Z 01013KT 09/M06 A2987 RMK A01 T00861057  RH  036%=      5-min Rain = 0
KDC1 111008Z 01007KT 09/M06 A2988 RMK A01 T00861058  RH  035%=      5-min Rain = 0
KDC1 111009Z 01008G13KT 09/M06 A2988 RMK A01 T00871058  RH  036%=      5-min Rain = 0
KDC1 111010Z 36012KT 09/M06 A2988 RMK A01 T00871058  RH  035%=      5-min Rain = 0
KDC1 111011Z 36012KT 09/M06 A2988 RMK A01 T00871058  RH  035%=      5-min Rain = 0
KDC1 111012Z 35013KT 09/M06 A2988 RMK A01 T00851062  RH  035%=      5-min Rain = 0
KDC1 111013Z 35014KT 08/M06 A2988 RMK A01 T00831064  RH  035%=      5-min Rain = 0
KDC1 111014Z 35013KT 08/M07 A2988 RMK A01 T00811065  RH  035%=      5-min Rain = 0
KDC1 111015Z 36013KT 08/M07 A2988 RMK A01 T00791066  RH  035%=      5-min Rain = 0
KDC1 111016Z 35012KT 08/M07 A2988 RMK A01 T00781065  RH  036%=      5-min Rain = 0
KDC1 111017Z 35012KT 08/M07 A2988 RMK A01 T00761065  RH  036%=      5-min Rain = 0
KDC1 111018Z 35012KT 08/M07 A2988 RMK A01 T00751065  RH  036%=      5-min Rain = 0
KDC1 111019Z 35014KT 07/M07 A2988 RMK A01 T00741065  RH  036%=      5-min Rain = 0
KDC1 111020Z 35015KT 07/M07 A2988 RMK A01 T00721066  RH  037%=      5-min Rain = 0
KDC1 111021Z 36014KT 07/M07 A2988 RMK A01 T00711067  RH  037%=      5-min Rain = 0
KDC1 111022Z 35012KT 07/M07 A2988 RMK A01 T00711067  RH  037%=      5-min Rain = 0
KDC1 111023Z 35012KT 07/M07 A2988 RMK A01 T00711067  RH  037%=      5-min Rain = 0
KDC1 111024Z 36011KT 07/M07 A2988 RMK A01 T00701067  RH  037%=      5-min Rain = 0
KDC1 111025Z 35013KT 07/M07 A2989 RMK A01 T00701067  RH  037%=      5-min Rain = 0
KDC1 111026Z 36012KT 07/M07 A2989 RMK A01 T00691068  RH  037%=      5-min Rain = 0
KDC1 111027Z 00014KT 07/M07 A2989 RMK A01 T00691068  RH  037%=      5-min Rain = 0
KDC1 111028Z 00016KT 07/M07 A2989 RMK A01 T00681068  RH  037%=      5-min Rain = 0
KDC1 111029Z 00017KT 07/M07 A2989 RMK A01 T00681068  RH  037%=      5-min Rain = 0
KDC1 111030Z 36017KT 07/M07 A2989 RMK A01 T00681069  RH  037%=      5-min Rain = 0
KDC1 111031Z 35014KT 07/M07 A2989 RMK A01 T00671069  RH  037%=      5-min Rain = 0
KDC1 111032Z 35014KT 07/M07 A2989 RMK A01 T00671069  RH  037%=      5-min Rain = 0
KDC1 111033Z 35013KT 07/M07 A2989 RMK A01 T00661069  RH  037%=      5-min Rain = 0
KDC1 111034Z 36013KT 07/M07 A2989 RMK A01 T00661069  RH  037%=      5-min Rain = 0
KDC1 111035Z 00013KT 07/M07 A2989 RMK A01 T00651070  RH  038%=      5-min Rain = 0
KDC1 111036Z 00013KT 06/M07 A2989 RMK A01 T00641070  RH  038%=      5-min Rain = 0
KDC1 111037Z 36012KT 06/M07 A2989 RMK A01 T00641070  RH  038%=      5-min Rain = 0
KDC1 111038Z 35012KT 06/M07 A2989 RMK A01 T00631070  RH  038%=      5-min Rain = 0
KDC1 111039Z 00013KT 06/M07 A299 RMK A01 T00621070  RH  038%=      5-min Rain = 0
KDC1 111040Z 00014KT 06/M07 A299 RMK A01 T00621070  RH  038%=      5-min Rain = 0
KDC1 111041Z 01013KT 06/M07 A299 RMK A01 T00621071  RH  038%=      5-min Rain = 0
KDC1 111042Z 00013KT 06/M07 A299 RMK A01 T00611071  RH  038%=      5-min Rain = 0
KDC1 111043Z 36015KT 06/M07 A299 RMK A01 T00611071  RH  038%=      5-min Rain = 0
KDC1 111044Z 00015KT 06/M07 A299 RMK A01 T00601071  RH  038%=      5-min Rain = 0
KDC1 111045Z 01016KT 06/M07 A299 RMK A01 T00601072  RH  038%=      5-min Rain = 0
KDC1 111046Z 00015KT 06/M07 A299 RMK A01 T00591073  RH  038%=      5-min Rain = 0
KDC1 111047Z 01013KT 06/M07 A299 RMK A01 T00581072  RH  039%=      5-min Rain = 0
KDC1 111048Z 01011G16KT 06/M07 A299 RMK A01 T00571073  RH  039%=      5-min Rain = 0
KDC1 111049Z 01013KT 06/M07 A299 RMK A01 T00571073  RH  038%=      5-min Rain = 0
KDC1 111050Z 01015KT 06/M07 A299 RMK A01 T00571074  RH  038%=      5-min Rain = 0
KDC1 111051Z 01017KT 06/M07 A2991 RMK A01 T00571074  RH  038%=      5-min Rain = 0
KDC1 111052Z 01016KT 06/M08 A2991 RMK A01 T00561075  RH  038%=      5-min Rain = 0
KDC1 111053Z 01013KT 06/M08 A2991 RMK A01 T00561075  RH  038%=      5-min Rain = 0
KDC1 111054Z 01013KT 06/M07 A2991 RMK A01 T00551074  RH  039%=      5-min Rain = 0
KDC1 111055Z 01013KT 05/M08 A2991 RMK A01 T00541075  RH  039%=      5-min Rain = 0
KDC1 111056Z 01013KT 05/M08 A2991 RMK A01 T00541075  RH  039%=      5-min Rain = 0
KDC1 111057Z 01013KT 05/M08 A2991 RMK A01 T00541075  RH  039%=      5-min Rain = 0
KDC1 111058Z 02013KT 05/M08 A2991 RMK A01 T00531075  RH  039%=      5-min Rain = 0
KDC1 111059Z 02013KT 05/M08 A2991 RMK A01 T00531076  RH  039%=      5-min Rain = 0
KDC1 111100Z 02011KT 05/M08 A2991 RMK A01 T00521077  RH  039%=      5-min Rain = 0
KDC1 111101Z 01011KT 05/M08 A2992 RMK A01 T00521077  RH  039%=      5-min Rain = 0
KDC1 111102Z 01011KT 05/M08 A2992 RMK A01 T00511077  RH  039%=      5-min Rain = 0
KDC1 111103Z 01013KT 05/M08 A2992 RMK A01 T00501077  RH  039%=      5-min Rain = 0
KDC1 111104Z 01012KT 05/M08 A2992 RMK A01 T00501079  RH  039%=      5-min Rain = 0
KDC1 111105Z 01014KT 05/M08 A2992 RMK A01 T00491079  RH  039%=      5-min Rain = 0
KDC1 111106Z 01015KT 05/M08 A2992 RMK A01 T00481080  RH  039%=      5-min Rain = 0
KDC1 111107Z 01017KT 05/M08 A2992 RMK A01 T00471082  RH  039%=      5-min Rain = 0
KDC1 111108Z 01015KT 05/M08 A2992 RMK A01 T00461083  RH  039%=      5-min Rain = 0
KDC1 111109Z 00011KT 05/M08 A2992 RMK A01 T00451082  RH  039%=      5-min Rain = 0
KDC1 111110Z 00013KT 04/M08 A2992 RMK A01 T00441082  RH  039%=      5-min Rain = 0
KDC1 111111Z 01013KT 04/M08 A2992 RMK A01 T00441082  RH  040%=      5-min Rain = 0
KDC1 111112Z 00013KT 04/M08 A2992 RMK A01 T00441083  RH  039%=      5-min Rain = 0
KDC1 111113Z 36014KT 04/M08 A2992 RMK A01 T00441083  RH  039%=      5-min Rain = 0
KDC1 111114Z 01014KT 04/M08 A2992 RMK A01 T00431083  RH  039%=      5-min Rain = 0
KDC1 111115Z 00013KT 04/M08 A2992 RMK A01 T00431084  RH  039%=      5-min Rain = 0
KDC1 111116Z 00012KT 04/M08 A2992 RMK A01 T00431084  RH  039%=      5-min Rain = 0
KDC1 111117Z 00010KT 04/M08 A2992 RMK A01 T00421084  RH  039%=      5-min Rain = 0
KDC1 111118Z 36011KT 04/M08 A2993 RMK A01 T00421084  RH  039%=      5-min Rain = 0
KDC1 111119Z 36012KT 04/M09 A2993 RMK A01 T00411085  RH  039%=      5-min Rain = 0
KDC1 111120Z 36013KT 04/M09 A2993 RMK A01 T00411085  RH  039%=      5-min Rain = 0
KDC1 111121Z 35013KT 04/M09 A2993 RMK A01 T00401086  RH  039%=      5-min Rain = 0
KDC1 111122Z 35014KT 04/M09 A2993 RMK A01 T00401087  RH  039%=      5-min Rain = 0
KDC1 111123Z 36012KT 04/M09 A2993 RMK A01 T00401088  RH  039%=      5-min Rain = 0
KDC1 111124Z 36011KT 04/M09 A2993 RMK A01 T00391088  RH  039%=      5-min Rain = 0
KDC1 111125Z 36012G17KT 04/M09 A2993 RMK A01 T00391088  RH  039%=      5-min Rain = 0
KDC1 111126Z 36013KT 04/M09 A2993 RMK A01 T00381088  RH  039%=      5-min Rain = 0
KDC1 111127Z 35013KT 04/M09 A2994 RMK A01 T00381089  RH  039%=      5-min Rain = 0
KDC1 111128Z 35011KT 04/M09 A2994 RMK A01 T00371090  RH  039%=      5-min Rain = 0
KDC1 111129Z 35014KT 04/M09 A2993 RMK A01 T00371089  RH  039%=      5-min Rain = 0
KDC1 111130Z 35013KT 04/M09 A2994 RMK A01 T00361090  RH  039%=      5-min Rain = 0
KDC1 111131Z 35013KT 04/M09 A2994 RMK A01 T00361091  RH  039%=      5-min Rain = 0
KDC1 111132Z 36015KT 04/M09 A2994 RMK A01 T00361091  RH  039%=      5-min Rain = 0
KDC1 111133Z 36013KT 04/M09 A2994 RMK A01 T00351091  RH  039%=      5-min Rain = 0
KDC1 111134Z 35014KT 04/M09 A2994 RMK A01 T00351090  RH  039%=      5-min Rain = 0
KDC1 111135Z 35014KT 04/M09 A2994 RMK A01 T00351091  RH  039%=      5-min Rain = 0
KDC1 111136Z 36014KT 04/M09 A2994 RMK A01 T00351092  RH  039%=      5-min Rain = 0
KDC1 111137Z 36015KT 03/M09 A2994 RMK A01 T00341092  RH  039%=      5-min Rain = 0
KDC1 111138Z 36013KT 03/M09 A2994 RMK A01 T00341092  RH  039%=      5-min Rain = 0
KDC1 111139Z 00013KT 03/M09 A2995 RMK A01 T00331093  RH  039%=      5-min Rain = 0
KDC1 111140Z 36013KT 03/M09 A2995 RMK A01 T00321092  RH  040%=      5-min Rain = 0
KDC1 111141Z 35010KT 03/M09 A2995 RMK A01 T00321092  RH  040%=      5-min Rain = 0
KDC1 111142Z 36010KT 03/M09 A2995 RMK A01 T00321092  RH  040%=      5-min Rain = 0
KDC1 111143Z 36013G18KT 03/M09 A2995 RMK A01 T00311092  RH  040%=      5-min Rain = 0
KDC1 111144Z 00015KT 03/M09 A2995 RMK A01 T00301093  RH  040%=      5-min Rain = 0
KDC1 111145Z 00013KT 03/M09 A2996 RMK A01 T00301092  RH  040%=      5-min Rain = 0
KDC1 111146Z 00011KT 03/M09 A2996 RMK A01 T00301093  RH  040%=      5-min Rain = 0
KDC1 111147Z 36012KT 03/M09 A2996 RMK A01 T00291093  RH  040%=      5-min Rain = 0
KDC1 111148Z 00012KT 03/M09 A2996 RMK A01 T00281093  RH  040%=      5-min Rain = 0
KDC1 111149Z 01013KT 03/M09 A2996 RMK A01 T00281094  RH  040%=      5-min Rain = 0
KDC1 111150Z 00013KT 03/M09 A2996 RMK A01 T00281094  RH  040%=      5-min Rain = 0
KDC1 111151Z 36013G18KT 03/M09 A2996 RMK A01 T00271094  RH  040%=      5-min Rain = 0
KDC1 111152Z 35011KT 03/M09 A2996 RMK A01 T00271094  RH  040%=      5-min Rain = 0
KDC1 111153Z 36013KT 03/M10 A2996 RMK A01 T00261095  RH  040%=      5-min Rain = 0
KDC1 111154Z 00014KT 03/M10 A2997 RMK A01 T00251096  RH  040%=      5-min Rain = 0
KDC1 111155Z 36014KT 03/M10 A2997 RMK A01 T00251096  RH  040%=      5-min Rain = 0
KDC1 111156Z 36015KT 02/M10 A2997 RMK A01 T00241097  RH  041%=      5-min Rain = 0
KDC1 111157Z 00013KT 02/M10 A2997 RMK A01 T00231098  RH  041%=      5-min Rain = 0
KDC1 111158Z 01012KT 02/M10 A2997 RMK A01 T00221098  RH  041%=      5-min Rain = 0
KDC1 111159Z 01010KT 02/M10 A2997 RMK A01 T00221098  RH  041%=      5-min Rain = 0
KDC1 111200Z 01009KT 02/M10 A2998 RMK A01 T00221097  RH  041%=      5-min Rain = 0
KDC1 111201Z 01010KT 02/M10 A2998 RMK A01 T00211097  RH  041%=      5-min Rain = 0
KDC1 111202Z 01011KT 02/M10 A2998 RMK A01 T00201097  RH  041%=      5-min Rain = 0
KDC1 111203Z 02012KT 02/M10 A2998 RMK A01 T00201097  RH  042%=      5-min Rain = 0
KDC1 111204Z 02012KT 02/M10 A2998 RMK A01 T00191097  RH  042%=      5-min Rain = 0
KDC1 111205Z 01013KT 02/M10 A2998 RMK A01 T00181098  RH  042%=      5-min Rain = 0
KDC1 111206Z 01011KT 02/M10 A2998 RMK A01 T00181098  RH  042%=      5-min Rain = 0
KDC1 111207Z 01010KT 02/M10 A2998 RMK A01 T00181098  RH  042%=      5-min Rain = 0
KDC1 111208Z 01008KT 02/M10 A2998 RMK A01 T00181098  RH  042%=      5-min Rain = 0
KDC1 111209Z 00011KT 02/M10 A2998 RMK A01 T00181098  RH  042%=      5-min Rain = 0
KDC1 111210Z 01011KT 02/M10 A2998 RMK A01 T00171099  RH  042%=      5-min Rain = 0
KDC1 111211Z 02011KT 02/M10 A2999 RMK A01 T00171099  RH  042%=      5-min Rain = 0
KDC1 111212Z 01008KT 02/M10 A2999 RMK A01 T00171099  RH  042%=      5-min Rain = 0
KDC1 111213Z 01009KT 02/M10 A2999 RMK A01 T00171099  RH  042%=      5-min Rain = 0
KDC1 111214Z 01007KT 02/M10 A2999 RMK A01 T00171099  RH  042%=      5-min Rain = 0
KDC1 111215Z 00005KT 02/M10 A2999 RMK A01 T00171099  RH  042%=      5-min Rain = 0
KDC1 111216Z 01006KT 02/M10 A2999 RMK A01 T00171099  RH  042%=      5-min Rain = 0
KDC1 111217Z 01007KT 02/M10 A2999 RMK A01 T00171099  RH  042%=      5-min Rain = 0
KDC1 111218Z 00008KT 02/M10 A30 RMK A01 T00171099  RH  042%=      5-min Rain = 0
KDC1 111219Z 00007KT 02/M10 A30 RMK A01 T00161099  RH  042%=      5-min Rain = 0
KDC1 111220Z 00005KT 02/M10 A30 RMK A01 T00171099  RH  042%=      5-min Rain = 0
KDC1 111221Z 01003KT 02/M10 A30 RMK A01 T00171099  RH  042%=      5-min Rain = 0
KDC1 111222Z 01003KT 02/M10 A30 RMK A01 T00171099  RH  042%=      5-min Rain = 0
KDC1 111223Z 34002KT 02/M10 A30 RMK A01 T00171099  RH  042%=      5-min Rain = 0
KDC1 111224Z 02001KT 02/M10 A30 RMK A01 T00171099  RH  042%=      5-min Rain = 0
KDC1 111225Z 00001KT 02/M10 A30 RMK A01 T00171099  RH  042%=      5-min Rain = 0
KDC1 111226Z 35002KT 02/M10 A30 RMK A01 T00161098  RH  042%=      5-min Rain = 0
KDC1 111227Z 35002KT 02/M10 A30 RMK A01 T00161098  RH  042%=      5-min Rain = 0
KDC1 111228Z 01001KT 02/M10 A30 RMK A01 T00161099  RH  042%=      5-min Rain = 0
KDC1 111229Z 35004KT 02/M10 A3001 RMK A01 T00161098  RH  042%=      5-min Rain = 0
KDC1 111230Z 34004KT 02/M10 A3001 RMK A01 T00161098  RH  042%=      5-min Rain = 0
KDC1 111231Z 34004KT 02/M10 A3001 RMK A01 T00161098  RH  042%=      5-min Rain = 0
KDC1 111232Z 34002KT 02/M10 A3001 RMK A01 T00171098  RH  042%=      5-min Rain = 0
KDC1 111233Z 35003KT 02/M10 A3001 RMK A01 T00171098  RH  042%=      5-min Rain = 0
KDC1 111234Z 35006KT 02/M10 A3001 RMK A01 T00171098  RH  042%=      5-min Rain = 0
KDC1 111235Z 34008KT 02/M10 A3001 RMK A01 T00171098  RH  042%=      5-min Rain = 0
KDC1 111236Z 34010KT 02/M10 A3001 RMK A01 T00161098  RH  043%=      5-min Rain = 0
KDC1 111237Z 34008KT 02/M10 A3001 RMK A01 T00161096  RH  043%=      5-min Rain = 0
KDC1 111238Z 33009KT 02/M10 A3002 RMK A01 T00171096  RH  043%=      5-min Rain = 0
KDC1 111239Z 33010KT 02/M10 A3002 RMK A01 T00171095  RH  043%=      5-min Rain = 0
KDC1 111240Z 34010KT 02/M09 A3001 RMK A01 T00171094  RH  044%=      5-min Rain = 0
KDC1 111241Z 33010KT 02/M09 A3001 RMK A01 T00171094  RH  044%=      5-min Rain = 0
KDC1 111242Z 34011KT 02/M09 A3001 RMK A01 T00171092  RH  044%=      5-min Rain = 0
KDC1 111243Z 34010KT 02/M09 A3001 RMK A01 T00171093  RH  044%=      5-min Rain = 0
KDC1 111244Z 34009KT 02/M09 A3001 RMK A01 T00171092  RH  044%=      5-min Rain = 0
KDC1 111245Z 34010KT 02/M09 A3002 RMK A01 T00171091  RH  045%=      5-min Rain = 0
KDC1 111246Z 35012KT 02/M09 A3002 RMK A01 T00171093  RH  044%=      5-min Rain = 0
KDC1 111247Z 35010KT 02/M09 A3002 RMK A01 T00171093  RH  044%=      5-min Rain = 0
KDC1 111248Z 35009KT 02/M09 A3002 RMK A01 T00181094  RH  043%=      5-min Rain = 0
KDC1 111249Z 36007KT 02/M09 A3002 RMK A01 T00181094  RH  043%=      5-min Rain = 0
KDC1 111250Z 36009KT 02/M09 A3002 RMK A01 T00181093  RH  043%=      5-min Rain = 0
KDC1 111251Z 00009KT 02/M09 A3002 RMK A01 T00181094  RH  043%=      5-min Rain = 0
KDC1 111252Z 00008KT 02/M09 A3003 RMK A01 T00181094  RH  043%=      5-min Rain = 0
KDC1 111253Z 00010KT 02/M09 A3003 RMK A01 T00191093  RH  043%=      5-min Rain = 0
KDC1 111254Z 36011KT 02/M09 A3003 RMK A01 T00201092  RH  044%=      5-min Rain = 0
KDC1 111255Z 36012KT 02/M09 A3003 RMK A01 T00201092  RH  043%=      5-min Rain = 0
KDC1 111256Z 36012KT 02/M09 A3003 RMK A01 T00201093  RH  043%=      5-min Rain = 0
KDC1 111257Z 36012KT 02/M09 A3003 RMK A01 T00191094  RH  043%=      5-min Rain = 0
KDC1 111258Z 36010KT 02/M09 A3003 RMK A01 T00181094  RH  043%=      5-min Rain = 0
KDC1 111259Z 35010KT 02/M10 A3003 RMK A01 T00171095  RH  043%=      5-min Rain = 0
KDC1 111300Z 36010KT 02/M10 A3003 RMK A01 T00171095  RH  043%=      5-min Rain = 0
KDC1 111301Z 35011KT 02/M10 A3004 RMK A01 T00161095  RH  043%=      5-min Rain = 0
KDC1 111302Z 35010KT 02/M10 A3004 RMK A01 T00161095  RH  044%=      5-min Rain = 0
KDC1 111303Z 36008KT 02/M10 A3004 RMK A01 T00161095  RH  044%=      5-min Rain = 0
KDC1 111304Z 00007KT 02/M10 A3004 RMK A01 T00151095  RH  044%=      5-min Rain = 0
KDC1 111305Z 36008G13KT 02/M10 A3004 RMK A01 T00151095  RH  044%=      5-min Rain = 0
KDC1 111306Z 35012KT 02/M10 A3004 RMK A01 T00151095  RH  044%=      5-min Rain = 0
KDC1 111307Z 36009KT 01/M10 A3004 RMK A01 T00141096  RH  044%=      5-min Rain = 0
KDC1 111308Z 36007KT 01/M10 A3004 RMK A01 T00131096  RH  044%=      5-min Rain = 0
KDC1 111309Z 00011KT 01/M10 A3005 RMK A01 T00131095  RH  044%=      5-min Rain = 0
KDC1 111310Z 00013KT 01/M10 A3005 RMK A01 T00131095  RH  044%=      5-min Rain = 0
KDC1 111311Z 36010KT 01/M10 A3005 RMK A01 T00131096  RH  044%=      5-min Rain = 0
KDC1 111312Z 00009KT 01/M10 A3005 RMK A01 T00121096  RH  044%=      5-min Rain = 0
KDC1 111313Z 00010KT 01/M10 A3005 RMK A01 T00111096  RH  045%=      5-min Rain = 0
KDC1 111314Z 00008KT 01/M10 A3005 RMK A01 T00111096  RH  045%=      5-min Rain = 0
KDC1 111315Z 36010KT 01/M10 A3006 RMK A01 T00111096  RH  045%=      5-min Rain = 0
KDC1 111316Z 36009KT 01/M10 A3006 RMK A01 T00101097  RH  045%=      5-min Rain = 0
KDC1 111317Z 00008KT 01/M10 A3006 RMK A01 T00101097  RH  045%=      5-min Rain = 0
KDC1 111318Z 00008KT 01/M10 A3006 RMK A01 T00101097  RH  045%=      5-min Rain = 0
KDC1 111319Z 00008KT 01/M10 A3006 RMK A01 T00091097  RH  045%=      5-min Rain = 0
KDC1 111320Z 00009KT 01/M10 A3006 RMK A01 T00101097  RH  045%=      5-min Rain = 0
KDC1 111321Z 36008KT 01/M10 A3006 RMK A01 T00091097  RH  045%=      5-min Rain = 0
KDC1 111322Z 00007KT 01/M10 A3006 RMK A01 T00101096  RH  045%=      5-min Rain = 0
KDC1 111323Z 00008KT 01/M10 A3006 RMK A01 T00091096  RH  045%=      5-min Rain = 0
KDC1 111324Z 35008KT 01/M10 A3006 RMK A01 T00091097  RH  045%=      5-min Rain = 0
KDC1 111325Z 36008KT 01/M10 A3007 RMK A01 T00081098  RH  045%=      5-min Rain = 0
KDC1 111326Z 36008KT 01/M10 A3007 RMK A01 T00081098  RH  045%=      5-min Rain = 0
KDC1 111327Z 01009KT 01/M10 A3007 RMK A01 T00081098  RH  045%=      5-min Rain = 0
KDC1 111328Z 00009KT 01/M10 A3007 RMK A01 T00081098  RH  045%=      5-min Rain = 0
KDC1 111329Z 00007KT 01/M10 A3007 RMK A01 T00081098  RH  045%=      5-min Rain = 0
KDC1 111330Z 36008KT 01/M10 A3007 RMK A01 T00081098  RH  045%=      5-min Rain = 0
KDC1 111331Z 36008KT 01/M10 A3007 RMK A01 T00081098  RH  045%=      5-min Rain = 0
KDC1 111332Z 00008KT 01/M10 A3007 RMK A01 T00071098  RH  045%=      5-min Rain = 0
KDC1 111333Z 36008KT 01/M10 A3007 RMK A01 T00071099  RH  045%=      5-min Rain = 0
KDC1 111334Z 01007KT 01/M10 A3007 RMK A01 T00061098  RH  045%=      5-min Rain = 0
KDC1 111335Z 36008KT 01/M10 A3007 RMK A01 T00061098  RH  046%=      5-min Rain = 0
KDC1 111336Z 00008KT 01/M10 A3008 RMK A01 T00051098  RH  046%=      5-min Rain = 0
KDC1 111337Z 01007KT 01/M10 A3008 RMK A01 T00051098  RH  046%=      5-min Rain = 0
KDC1 111338Z 03009KT 01/M10 A3008 RMK A01 T00051097  RH  046%=      5-min Rain = 0
KDC1 111339Z 06006KT 01/M09 A3008 RMK A01 T00051093  RH  048%=      5-min Rain = 0
KDC1 111340Z 07006KT 01/M09 A3008 RMK A01 T00051092  RH  048%=      5-min Rain = 0
KDC1 111341Z 08007KT 01/M09 A3008 RMK A01 T00051093  RH  048%=      5-min Rain = 0
KDC1 111342Z 08007KT 00/M09 A3008 RMK A01 T00041094  RH  048%=      5-min Rain = 0
KDC1 111343Z 09008KT 00/M10 A3009 RMK A01 T00041095  RH  048%=      5-min Rain = 0
KDC1 111344Z 09008KT 00/M10 A3009 RMK A01 T00031095  RH  048%=      5-min Rain = 0
KDC1 111345Z 08009KT 00/M10 A3009 RMK A01 T00021096  RH  048%=      5-min Rain = 0
KDC1 111346Z 08008KT 00/M10 A3009 RMK A01 T00011096  RH  048%=      5-min Rain = 0
KDC1 111347Z 09008KT 00/10 A3009 RMK A01 T00000-97  RH  048%=      5-min Rain = 0
KDC1 111348Z 13007KT M00/M10 A3009 RMK A01 T10011097  RH  048%=      5-min Rain = 0
KDC1 111349Z 13007KT M00/M10 A3009 RMK A01 T10021097  RH  049%=      5-min Rain = 0
KDC1 111350Z 13006KT M00/M10 A3009 RMK A01 T10031098  RH  049%=      5-min Rain = 0
KDC1 111351Z 12005KT M00/M10 A3009 RMK A01 T10041099  RH  049%=      5-min Rain = 0
KDC1 111352Z 13006KT M00/M10 A3009 RMK A01 T10041098  RH  049%=      5-min Rain = 0
KDC1 111353Z 13007KT M01/M10 A3009 RMK A01 T10051099  RH  049%=      5-min Rain = 0
KDC1 111354Z 13006KT M01/M10 A3009 RMK A01 T10051098  RH  049%=      5-min Rain = 0
KDC1 111355Z 13005KT M01/M10 A3009 RMK A01 T10061098  RH  050%=      5-min Rain = 0
KDC1 111356Z 12004KT M01/M10 A3009 RMK A01 T10051097  RH  050%=      5-min Rain = 0
KDC1 111357Z 12003KT M00/M10 A301 RMK A01 T10041097  RH  050%=      5-min Rain = 0
KDC1 111358Z 11002KT M00/M10 A301 RMK A01 T10041098  RH  049%=      5-min Rain = 0
KDC1 111359Z 10002KT M00/M10 A301 RMK A01 T10041099  RH  049%=      5-min Rain = 0
KDC1 111400Z 10002KT M00/M10 A301 RMK A01 T10041099  RH  049%=      5-min Rain = 0
KDC1 111401Z 15002KT M00/M10 A301 RMK A01 T10041098  RH  049%=      5-min Rain = 0
KDC1 111402Z 15002KT M00/M10 A301 RMK A01 T10041098  RH  049%=      5-min Rain = 0
KDC1 111403Z 14003KT M01/M10 A3011 RMK A01 T10051099  RH  049%=      5-min Rain = 0
KDC1 111404Z 13003KT M01/M10 A3011 RMK A01 T10051098  RH  049%=      5-min Rain = 0
KDC1 111405Z 13004KT M01/M10 A3011 RMK A01 T10051098  RH  049%=      5-min Rain = 0
KDC1 111406Z 13003KT M01/M10 A3011 RMK A01 T10051098  RH  050%=      5-min Rain = 0
KDC1 111407Z 12003KT M01/M10 A3011 RMK A01 T10061098  RH  050%=      5-min Rain = 0
KDC1 111408Z 09000KT M01/M10 A3011 RMK A01 T10071099  RH  050%=      5-min Rain = 0
KDC1 111409Z 07002KT M01/M10 A3011 RMK A01 T10071098  RH  050%=      5-min Rain = 0
KDC1 111410Z 11001KT M01/M10 A3011 RMK A01 T10061097  RH  050%=      5-min Rain = 0
KDC1 111411Z 07002KT M01/M10 A3011 RMK A01 T10061097  RH  050%=      5-min Rain = 0
KDC1 111412Z 08002KT M01/M10 A3011 RMK A01 T10061097  RH  050%=      5-min Rain = 0
KDC1 111413Z 12001KT M01/M10 A3011 RMK A01 T10061098  RH  050%=      5-min Rain = 0
KDC1 111414Z 19001KT M01/M10 A3011 RMK A01 T10051099  RH  049%=      5-min Rain = 0
KDC1 111415Z 20000KT M01/M10 A3011 RMK A01 T10051098  RH  049%=      5-min Rain = 0
KDC1 111416Z 00000KT M01/M10 A3012 RMK A01 T10051097  RH  050%=      5-min Rain = 0
KDC1 111417Z 31000KT M01/M10 A3012 RMK A01 T10051097  RH  050%=      5-min Rain = 0
KDC1 111418Z 32001KT M01/M10 A3012 RMK A01 T10051097  RH  050%=      5-min Rain = 0
KDC1 111419Z 32000KT M00/M10 A3012 RMK A01 T10041097  RH  050%=      5-min Rain = 0
KDC1 111420Z 00000KT M00/M10 A3012 RMK A01 T10041098  RH  049%=      5-min Rain = 0
KDC1 111421Z 21000KT M00/M10 A3012 RMK A01 T10041098  RH  049%=      5-min Rain = 0
KDC1 111422Z 22000KT M00/M10 A3012 RMK A01 T10041097  RH  049%=      5-min Rain = 0
KDC1 111423Z 23001KT M00/M10 A3012 RMK A01 T10041096  RH  050%=      5-min Rain = 0
KDC1 111424Z 00000KT M00/M10 A3012 RMK A01 T10031097  RH  049%=      5-min Rain = 0
KDC1 111425Z 00000KT M00/M10 A3012 RMK A01 T10031097  RH  049%=      5-min Rain = 0
KDC1 111426Z 00000KT M00/M10 A3013 RMK A01 T10031097  RH  049%=      5-min Rain = 0
KDC1 111427Z 00000KT M00/M10 A3013 RMK A01 T10021098  RH  048%=      5-min Rain = 0
KDC1 111428Z 31001KT M00/M10 A3013 RMK A01 T10011098  RH  048%=      5-min Rain = 0
KDC1 111429Z 29001KT 00/10 A3013 RMK A01 T00-00-98  RH  048%=      5-min Rain = 0
KDC1 111430Z 31002KT 00/M10 A3013 RMK A01 T00011098  RH  047%=      5-min Rain = 0
KDC1 111431Z 33003KT 00/M10 A3013 RMK A01 T00011099  RH  047%=      5-min Rain = 0
KDC1 111432Z 35002KT 00/M10 A3013 RMK A01 T00021099  RH  047%=      5-min Rain = 0
KDC1 111433Z 35002KT 00/M10 A3013 RMK A01 T00021099  RH  047%=      5-min Rain = 0
KDC1 111434Z 00005KT 00/M10 A3013 RMK A01 T00031099  RH  046%=      5-min Rain = 0
KDC1 111435Z 34004KT 00/M10 A3013 RMK A01 T00041098  RH  047%=      5-min Rain = 0
KDC1 111436Z 36008KT 01/M10 A3013 RMK A01 T00051097  RH  047%=      5-min Rain = 0
KDC1 111437Z 00007KT 01/M10 A3013 RMK A01 T00061097  RH  046%=      5-min Rain = 0
KDC1 111438Z 36008KT 01/M10 A3014 RMK A01 T00061098  RH  046%=      5-min Rain = 0
KDC1 111439Z 01008KT 01/M10 A3014 RMK A01 T00061098  RH  045%=      5-min Rain = 0
KDC1 111440Z 02006KT 01/M10 A3014 RMK A01 T00071098  RH  045%=      5-min Rain = 0
KDC1 111441Z 01006KT 01/M10 A3014 RMK A01 T00071099  RH  045%=      5-min Rain = 0
KDC1 111442Z 36007KT 01/M10 A3014 RMK A01 T00071098  RH  045%=      5-min Rain = 0
KDC1 111443Z 00007KT 01/M10 A3014 RMK A01 T00061098  RH  046%=      5-min Rain = 0
KDC1 111444Z 35007KT 01/M10 A3014 RMK A01 T00061097  RH  046%=      5-min Rain = 0
KDC1 111445Z 00007KT 01/M10 A3014 RMK A01 T00061097  RH  046%=      5-min Rain = 0
KDC1 111446Z 01005KT 01/M10 A3014 RMK A01 T00061098  RH  046%=      5-min Rain = 0
KDC1 111447Z 35004KT 01/M10 A3014 RMK A01 T00061098  RH  046%=      5-min Rain = 0
KDC1 111448Z 36004KT 01/M10 A3014 RMK A01 T00061097  RH  046%=      5-min Rain = 0
KDC1 111449Z 36005KT 01/M10 A3014 RMK A01 T00061096  RH  046%=      5-min Rain = 0
KDC1 111450Z 00006KT 01/M10 A3015 RMK A01 T00061096  RH  046%=      5-min Rain = 0
KDC1 111451Z 01005KT 01/M10 A3015 RMK A01 T00061097  RH  046%=      5-min Rain = 0
KDC1 111452Z 36004KT 01/M10 A3015 RMK A01 T00061097  RH  046%=      5-min Rain = 0
KDC1 111453Z 36006KT 01/M10 A3015 RMK A01 T00061096  RH  046%=      5-min Rain = 0
KDC1 111454Z 00006KT 01/M10 A3015 RMK A01 T00071095  RH  046%=      5-min Rain = 0
KDC1 111455Z 00006KT 01/M10 A3015 RMK A01 T00071096  RH  046%=      5-min Rain = 0
KDC1 111456Z 36007KT 01/M10 A3015 RMK A01 T00081095  RH  046%=      5-min Rain = 0
KDC1 111457Z 36005KT 01/M10 A3015 RMK A01 T00081095  RH  046%=      5-min Rain = 0
KDC1 111458Z 35004KT 01/M09 A3015 RMK A01 T00081094  RH  046%=      5-min Rain = 0
KDC1 111459Z 35005KT 01/M09 A3015 RMK A01 T00091094  RH  046%=      5-min Rain = 0
KDC1 111500Z 35007KT 01/M09 A3015 RMK A01 T00091094  RH  046%=      5-min Rain = 0
KDC1 111501Z 35007KT 01/M09 A3015 RMK A01 T00091094  RH  046%=      5-min Rain = 0
KDC1 111502Z 36007KT 01/M09 A3015 RMK A01 T00091094  RH  046%=      5-min Rain = 0
KDC1 111503Z 00007KT 01/M09 A3015 RMK A01 T00101094  RH  046%=      5-min Rain = 0
KDC1 111504Z 01006KT 01/M09 A3015 RMK A01 T00101094  RH  046%=      5-min Rain = 0
KDC1 111505Z 01007KT 01/M09 A3015 RMK A01 T00101094  RH  046%=      5-min Rain = 0
KDC1 111506Z 36007KT 01/M09 A3016 RMK A01 T00101094  RH  046%=      5-min Rain = 0
KDC1 111507Z 35006KT 01/M09 A3016 RMK A01 T00101094  RH  046%=      5-min Rain = 0
KDC1 111508Z 36007KT 01/M09 A3016 RMK A01 T00101093  RH  046%=      5-min Rain = 0
KDC1 111509Z 36009KT 01/M09 A3016 RMK A01 T00111093  RH  046%=      5-min Rain = 0
KDC1 111510Z 36009KT 01/M09 A3016 RMK A01 T00121093  RH  045%=      5-min Rain = 0
KDC1 111511Z 00008KT 01/M09 A3016 RMK A01 T00121093  RH  045%=      5-min Rain = 0
KDC1 111512Z 35006KT 01/M09 A3016 RMK A01 T00131092  RH  046%=      5-min Rain = 0
KDC1 111513Z 35008KT 01/M09 A3016 RMK A01 T00131092  RH  045%=      5-min Rain = 0
KDC1 111514Z 35008KT 01/M09 A3016 RMK A01 T00131093  RH  045%=      5-min Rain = 0
KDC1 111515Z 00007KT 01/M09 A3016 RMK A01 T00131093  RH  045%=      5-min Rain = 0
KDC1 111516Z 36008KT 01/M09 A3016 RMK A01 T00131092  RH  045%=      5-min Rain = 0
KDC1 111517Z 36009KT 01/M09 A3016 RMK A01 T00131092  RH  045%=      5-min Rain = 0
KDC1 111518Z 36008KT 01/M09 A3016 RMK A01 T00131093  RH  045%=      5-min Rain = 0
KDC1 111519Z 01007KT 01/M09 A3016 RMK A01 T00141093  RH  045%=      5-min Rain = 0
KDC1 111520Z 01006KT 01/M09 A3016 RMK A01 T00141092  RH  045%=      5-min Rain = 0
KDC1 111521Z 36006KT 02/M09 A3016 RMK A01 T00151092  RH  045%=      5-min Rain = 0
KDC1 111522Z 00008KT 02/M09 A3016 RMK A01 T00161092  RH  045%=      5-min Rain = 0
KDC1 111523Z 36008KT 02/M09 A3017 RMK A01 T00151093  RH  044%=      5-min Rain = 0
KDC1 111524Z 00007KT 01/M09 A3017 RMK A01 T00141093  RH  045%=      5-min Rain = 0
KDC1 111525Z 00009KT 02/M09 A3017 RMK A01 T00151092  RH  045%=      5-min Rain = 0
KDC1 111526Z 35007KT 02/M09 A3017 RMK A01 T00151093  RH  044%=      5-min Rain = 0
KDC1 111527Z 36008KT 02/M09 A3016 RMK A01 T00151093  RH  045%=      5-min Rain = 0
KDC1 111528Z 00007KT 02/M09 A3017 RMK A01 T00151093  RH  045%=      5-min Rain = 0
KDC1 111529Z 36008KT 02/M09 A3017 RMK A01 T00151092  RH  045%=      5-min Rain = 0
KDC1 111530Z 01009KT 02/M09 A3017 RMK A01 T00161093  RH  044%=      5-min Rain = 0
KDC1 111531Z 01007KT 02/M09 A3016 RMK A01 T00151093  RH  044%=      5-min Rain = 0
KDC1 111532Z 01007KT 02/M09 A3016 RMK A01 T00161093  RH  044%=      5-min Rain = 0
KDC1 111533Z 00007KT 02/M09 A3017 RMK A01 T00161092  RH  045%=      5-min Rain = 0
KDC1 111534Z 36006KT 02/M09 A3017 RMK A01 T00161092  RH  045%=      5-min Rain = 0
KDC1 111535Z 35008KT 02/M09 A3017 RMK A01 T00171091  RH  045%=      5-min Rain = 0
KDC1 111536Z 36009KT 02/M09 A3017 RMK A01 T00171092  RH  044%=      5-min Rain = 0
KDC1 111537Z 36008KT 02/M09 A3017 RMK A01 T00171093  RH  044%=      5-min Rain = 0
KDC1 111538Z 00008KT 02/M09 A3017 RMK A01 T00171093  RH  044%=      5-min Rain = 0
KDC1 111539Z 36006KT 02/M09 A3017 RMK A01 T00161093  RH  044%=      5-min Rain = 0
KDC1 111540Z 00008KT 02/M09 A3017 RMK A01 T00171092  RH  044%=      5-min Rain = 0
KDC1 111541Z 00008KT 02/M09 A3017 RMK A01 T00171093  RH  044%=      5-min Rain = 0
KDC1 111542Z 00008KT 02/M09 A3017 RMK A01 T00171092  RH  044%=      5-min Rain = 0
KDC1 111543Z 36008KT 02/M09 A3017 RMK A01 T00171092  RH  044%=      5-min Rain = 0
KDC1 111544Z 36008KT 02/M09 A3017 RMK A01 T00171093  RH  044%=      5-min Rain = 0
KDC1 111545Z 35008KT 02/M09 A3017 RMK A01 T00171092  RH  044%=      5-min Rain = 0
KDC1 111546Z 35007KT 02/M09 A3017 RMK A01 T00181092  RH  044%=      5-min Rain = 0
KDC1 111547Z 01007KT 02/M09 A3017 RMK A01 T00181093  RH  044%=      5-min Rain = 0
KDC1 111548Z 35007KT 02/M09 A3017 RMK A01 T00181092  RH  044%=      5-min Rain = 0
KDC1 111549Z 34007KT 02/M09 A3018 RMK A01 T00191093  RH  043%=      5-min Rain = 0
KDC1 111550Z 34007KT 02/M09 A3018 RMK A01 T00191092  RH  044%=      5-min Rain = 0
KDC1 111551Z 35007KT 02/M09 A3018 RMK A01 T00191091  RH  044%=      5-min Rain = 0
KDC1 111552Z 35007KT 02/M09 A3018 RMK A01 T00191091  RH  044%=      5-min Rain = 0
KDC1 111553Z 00007KT 02/M09 A3018 RMK A01 T00201091  RH  044%=      5-min Rain = 0
KDC1 111554Z 36007KT 02/M09 A3018 RMK A01 T00201091  RH  043%=      5-min Rain = 0
KDC1 111555Z 35007KT 02/M09 A3018 RMK A01 T00201092  RH  043%=      5-min Rain = 0
KDC1 111556Z 35007KT 02/M09 A3017 RMK A01 T00201092  RH  043%=      5-min Rain = 0
KDC1 111557Z 35006KT 02/M09 A3017 RMK A01 T00201092  RH  043%=      5-min Rain = 0
KDC1 111558Z 35007KT 02/M09 A3017 RMK A01 T00201092  RH  043%=      5-min Rain = 0
KDC1 111559Z 34007KT 02/M09 A3018 RMK A01 T00211092  RH  043%=      5-min Rain = 0
KDC1 111600Z 36007KT 02/M09 A3018 RMK A01 T00201092  RH  043%=      5-min Rain = 0
KDC1 111601Z 00008KT 02/M09 A3018 RMK A01 T00201092  RH  043%=      5-min Rain = 0
KDC1 111602Z 36007KT 02/M09 A3018 RMK A01 T00201093  RH  043%=      5-min Rain = 0
KDC1 111603Z 35006KT 02/M09 A3018 RMK A01 T00211092  RH  043%=      5-min Rain = 0
KDC1 111604Z 34007KT 02/M09 A3018 RMK A01 T00221092  RH  043%=      5-min Rain = 0
KDC1 111605Z 34007KT 02/M09 A3018 RMK A01 T00221092  RH  043%=      5-min Rain = 0
KDC1 111606Z 36007KT 02/M09 A3018 RMK A01 T00221091  RH  043%=      5-min Rain = 0
KDC1 111607Z 35006KT 02/M09 A3018 RMK A01 T00231092  RH  042%=      5-min Rain = 0
KDC1 111608Z 35007KT 02/M09 A3018 RMK A01 T00231092  RH  043%=      5-min Rain = 0
KDC1 111609Z 35007KT 02/M09 A3018 RMK A01 T00231092  RH  043%=      5-min Rain = 0
KDC1 111610Z 35007KT 02/M09 A3018 RMK A01 T00231091  RH  042%=      5-min Rain = 0
KDC1 111611Z 00008KT 02/M09 A3018 RMK A01 T00241092  RH  042%=      5-min Rain = 0
KDC1 111612Z 35006KT 02/M09 A3018 RMK A01 T00241091  RH  042%=      5-min Rain = 0
KDC1 111613Z 35005KT 03/M09 A3018 RMK A01 T00251090  RH  042%=      5-min Rain = 0
KDC1 111614Z 35006KT 03/M09 A3018 RMK A01 T00251091  RH  042%=      5-min Rain = 0
KDC1 111615Z 34006KT 03/M09 A3018 RMK A01 T00261090  RH  042%=      5-min Rain = 0
KDC1 111616Z 35007KT 03/M09 A3018 RMK A01 T00271090  RH  042%=      5-min Rain = 0
KDC1 111617Z 35006KT 03/M09 A3018 RMK A01 T00271091  RH  042%=      5-min Rain = 0
KDC1 111618Z 35005KT 03/M09 A3018 RMK A01 T00261092  RH  041%=      5-min Rain = 0
KDC1 111619Z 34004KT 03/M09 A3018 RMK A01 T00251092  RH  042%=      5-min Rain = 0
KDC1 111620Z 35006KT 03/M09 A3018 RMK A01 T00251091  RH  042%=      5-min Rain = 0
KDC1 111621Z 35005KT 03/M09 A3018 RMK A01 T00251091  RH  042%=      5-min Rain = 0
KDC1 111622Z 34005KT 03/M09 A3018 RMK A01 T00251091  RH  042%=      5-min Rain = 0
KDC1 111623Z 34005KT 03/M09 A3018 RMK A01 T00251091  RH  042%=      5-min Rain = 0
KDC1 111624Z 34006KT 03/M09 A3018 RMK A01 T00261090  RH  042%=      5-min Rain = 0
KDC1 111625Z 34006KT 03/M09 A3018 RMK A01 T00261090  RH  042%=      5-min Rain = 0
KDC1 111626Z 35006KT 03/M09 A3018 RMK A01 T00271090  RH  042%=      5-min Rain = 0
KDC1 111627Z 36003KT 03/M09 A3018 RMK A01 T00271091  RH  042%=      5-min Rain = 0
KDC1 111628Z 34005KT 03/M09 A3018 RMK A01 T00271090  RH  042%=      5-min Rain = 0
KDC1 111629Z 36005KT 03/M09 A3018 RMK A01 T00281090  RH  042%=      5-min Rain = 0
KDC1 111630Z 36006KT 03/M09 A3018 RMK A01 T00281090  RH  042%=      5-min Rain = 0
KDC1 111631Z 35005KT 03/M09 A3018 RMK A01 T00291090  RH  041%=      5-min Rain = 0
KDC1 111632Z 35004KT 03/M09 A3018 RMK A01 T00281091  RH  041%=      5-min Rain = 0
KDC1 111633Z 36003KT 03/M09 A3018 RMK A01 T00291091  RH  041%=      5-min Rain = 0
KDC1 111634Z 34003KT 03/M09 A3018 RMK A01 T00291091  RH  041%=      5-min Rain = 0
KDC1 111635Z 34001KT 03/M09 A3018 RMK A01 T00291091  RH  041%=      5-min Rain = 0
KDC1 111636Z 33001KT 03/M09 A3018 RMK A01 T00291091  RH  041%=      5-min Rain = 0
KDC1 111637Z 35001KT 03/M09 A3018 RMK A01 T00301090  RH  041%=      5-min Rain = 0
KDC1 111638Z 02002KT 03/M09 A3018 RMK A01 T00311089  RH  041%=      5-min Rain = 0
KDC1 111639Z 03002KT 03/M09 A3019 RMK A01 T00331089  RH  040%=      5-min Rain = 0
KDC1 111640Z 00001KT 03/M09 A3019 RMK A01 T00331090  RH  040%=      5-min Rain = 0
KDC1 111641Z 30003KT 03/M09 A3019 RMK A01 T00331090  RH  040%=      5-min Rain = 0
KDC1 111642Z 03003KT 03/M09 A3019 RMK A01 T00331089  RH  040%=      5-min Rain = 0
KDC1 111643Z 03003KT 03/M09 A3019 RMK A01 T00331089  RH  040%=      5-min Rain = 0
KDC1 111644Z 36003KT 03/M09 A3019 RMK A01 T00331090  RH  040%=      5-min Rain = 0
KDC1 111645Z 02002KT 03/M09 A3019 RMK A01 T00331090  RH  040%=      5-min Rain = 0
KDC1 111646Z 04003KT 03/M09 A3019 RMK A01 T00331090  RH  040%=      5-min Rain = 0
KDC1 111647Z 04002KT 03/M09 A3019 RMK A01 T00331090  RH  040%=      5-min Rain = 0
KDC1 111648Z 01003KT 03/M09 A3019 RMK A01 T00331090  RH  040%=      5-min Rain = 0
KDC1 111649Z 04003KT 03/M09 A3019 RMK A01 T00341089  RH  040%=      5-min Rain = 0
KDC1 111650Z 02004KT 03/M09 A3019 RMK A01 T00341089  RH  040%=      5-min Rain = 0
KDC1 111651Z 01004KT 03/M09 A3019 RMK A01 T00331091  RH  040%=      5-min Rain = 0
KDC1 111652Z 01004KT 03/M09 A3019 RMK A01 T00321092  RH  040%=      5-min Rain = 0
KDC1 111653Z 02002KT 03/M09 A3019 RMK A01 T00311092  RH  040%=      5-min Rain = 0
KDC1 111654Z 02002KT 03/M09 A3019 RMK A01 T00301092  RH  040%=      5-min Rain = 0
KDC1 111655Z 01003KT 03/M09 A3019 RMK A01 T00301092  RH  040%=      5-min Rain = 0
KDC1 111656Z 35003KT 03/M09 A3019 RMK A01 T00311092  RH  040%=      5-min Rain = 0
KDC1 111657Z 34003KT 03/M09 A3019 RMK A01 T00301091  RH  040%=      5-min Rain = 0
KDC1 111658Z 34002KT 03/M09 A302 RMK A01 T00301091  RH  040%=      5-min Rain = 0
KDC1 111659Z 31001KT 03/M09 A302 RMK A01 T00301091  RH  040%=      5-min Rain = 0
KDC1 111700Z 32001KT 03/M09 A3019 RMK A01 T00301091  RH  040%=      5-min Rain = 0
KDC1 111701Z 02001KT 03/M09 A3019 RMK A01 T00301091  RH  041%=      5-min Rain = 0
KDC1 111702Z 04001KT 03/M09 A3019 RMK A01 T00311091  RH  040%=      5-min Rain = 0
KDC1 111703Z 02002KT 03/M09 A3019 RMK A01 T00311092  RH  040%=      5-min Rain = 0
KDC1 111704Z 03003KT 03/M09 A3019 RMK A01 T00321091  RH  040%=      5-min Rain = 0
KDC1 111705Z 05002KT 03/M09 A3019 RMK A01 T00321091  RH  040%=      5-min Rain = 0
KDC1 111706Z 06002KT 03/M09 A3019 RMK A01 T00321092  RH  040%=      5-min Rain = 0
KDC1 111707Z 05002KT 03/M09 A3019 RMK A01 T00321092  RH  040%=      5-min Rain = 0
KDC1 111708Z 04003KT 03/M09 A3019 RMK A01 T00331092  RH  040%=      5-min Rain = 0
KDC1 111709Z 03003KT 03/M09 A3019 RMK A01 T00321092  RH  040%=      5-min Rain = 0
KDC1 111710Z 03002KT 03/M09 A3019 RMK A01 T00321092  RH  040%=      5-min Rain = 0
KDC1 111711Z 04001KT 03/M09 A3019 RMK A01 T00311092  RH  040%=      5-min Rain = 0
KDC1 111712Z 04000KT 03/M09 A3019 RMK A01 T00311092  RH  040%=      5-min Rain = 0
KDC1 111713Z 00000KT 03/M09 A3019 RMK A01 T00331091  RH  040%=      5-min Rain = 0
KDC1 111714Z 27000KT 03/M09 A3019 RMK A01 T00341091  RH  039%=      5-min Rain = 0
KDC1 111715Z 29001KT 04/M09 A3019 RMK A01 T00361091  RH  039%=      5-min Rain = 0
KDC1 111716Z 28002KT 04/M09 A3019 RMK A01 T00371091  RH  039%=      5-min Rain = 0
KDC1 111717Z 29002KT 04/M09 A3019 RMK A01 T00381090  RH  039%=      5-min Rain = 0
KDC1 111718Z 25002KT 04/M09 A3019 RMK A01 T00381090  RH  039%=      5-min Rain = 0
KDC1 111719Z 32003KT 04/M09 A3019 RMK A01 T00391089  RH  039%=      5-min Rain = 0
KDC1 111720Z 31004KT 04/M09 A3019 RMK A01 T00411090  RH  038%=      5-min Rain = 0
KDC1 111721Z 31002KT 04/M09 A3019 RMK A01 T00391092  RH  038%=      5-min Rain = 0
KDC1 111722Z 32002KT 04/M09 A3019 RMK A01 T00381092  RH  038%=      5-min Rain = 0
KDC1 111723Z 33002KT 04/M09 A3019 RMK A01 T00381092  RH  038%=      5-min Rain = 0
KDC1 111724Z 32002KT 04/M09 A3019 RMK A01 T00381092  RH  038%=      5-min Rain = 0
KDC1 111725Z 34002KT 04/M09 A3019 RMK A01 T00381092  RH  038%=      5-min Rain = 0
KDC1 111726Z 32002KT 04/M09 A3019 RMK A01 T00381091  RH  038%=      5-min Rain = 0
KDC1 111727Z 26003KT 04/M09 A3019 RMK A01 T00381089  RH  039%=      5-min Rain = 0
KDC1 111728Z 26005KT 04/M09 A3019 RMK A01 T00391090  RH  038%=      5-min Rain = 0
KDC1 111729Z 25006KT 04/M09 A3019 RMK A01 T00391089  RH  038%=      5-min Rain = 0
KDC1 111730Z 23005KT 04/M09 A3019 RMK A01 T00391089  RH  039%=      5-min Rain = 0
KDC1 111731Z 24005KT 04/M09 A3019 RMK A01 T00391090  RH  038%=      5-min Rain = 0
KDC1 111732Z 24005KT 04/M09 A3019 RMK A01 T00391088  RH  039%=      5-min Rain = 0
KDC1 111733Z 22005KT 04/M09 A3019 RMK A01 T00421085  RH  039%=      5-min Rain = 0
KDC1 111734Z 22006KT 05/M08 A3019 RMK A01 T00461084  RH  038%=      5-min Rain = 0
KDC1 111735Z 23006KT 05/M09 A3019 RMK A01 T00471088  RH  037%=      5-min Rain = 0
KDC1 111736Z 22007KT 04/M09 A3019 RMK A01 T00441089  RH  037%=      5-min Rain = 0
KDC1 111737Z 24006KT 04/M09 A3019 RMK A01 T00421089  RH  038%=      5-min Rain = 0
KDC1 111738Z 24007KT 04/M09 A3019 RMK A01 T00421087  RH  039%=      5-min Rain = 0
KDC1 111739Z 22005KT 04/M09 A3019 RMK A01 T00431086  RH  038%=      5-min Rain = 0
KDC1 111740Z 23007KT 05/M09 A3019 RMK A01 T00451086  RH  038%=      5-min Rain = 0
KDC1 111741Z 23006KT 05/M09 A3019 RMK A01 T00471087  RH  037%=      5-min Rain = 0
KDC1 111742Z 24005KT 05/M09 A3019 RMK A01 T00471087  RH  037%=      5-min Rain = 0
KDC1 111743Z 19004KT 05/M09 A3019 RMK A01 T00461089  RH  037%=      5-min Rain = 0
KDC1 111744Z 20004KT 04/M09 A3019 RMK A01 T00441090  RH  037%=      5-min Rain = 0
KDC1 111745Z 18006KT 04/M09 A3019 RMK A01 T00431089  RH  038%=      5-min Rain = 0
KDC1 111746Z 20007KT 04/M09 A3019 RMK A01 T00421091  RH  037%=      5-min Rain = 0
KDC1 111747Z 20006KT 04/M09 A3019 RMK A01 T00421091  RH  037%=      5-min Rain = 0
KDC1 111748Z 19007KT 04/M09 A3019 RMK A01 T00411091  RH  037%=      5-min Rain = 0
KDC1 111749Z 25007KT 04/M09 A3019 RMK A01 T00421089  RH  038%=      5-min Rain = 0
KDC1 111750Z 24006KT 04/M09 A3019 RMK A01 T00421088  RH  038%=      5-min Rain = 0
KDC1 111751Z 20004KT 04/M09 A3019 RMK A01 T00421087  RH  038%=      5-min Rain = 0
KDC1 111752Z 20005KT 04/M09 A3019 RMK A01 T00421090  RH  038%=      5-min Rain = 0
KDC1 111753Z 22007KT 04/M09 A3019 RMK A01 T00431089  RH  038%=      5-min Rain = 0
KDC1 111754Z 22005KT 04/M09 A3019 RMK A01 T00441089  RH  037%=      5-min Rain = 0
KDC1 111755Z 22003KT 04/M09 A3019 RMK A01 T00441089  RH  037%=      5-min Rain = 0
KDC1 111756Z 21004KT 05/M09 A3019 RMK A01 T00461087  RH  037%=      5-min Rain = 0
KDC1 111757Z 22004KT 05/M08 A3019 RMK A01 T00501084  RH  037%=      5-min Rain = 0
KDC1 111758Z 22006KT 05/M09 A3019 RMK A01 T00511086  RH  036%=      5-min Rain = 0
KDC1 111759Z 22006KT 05/M09 A3019 RMK A01 T00501088  RH  036%=      5-min Rain = 0
KDC1 111800Z 21006KT 05/M09 A3019 RMK A01 T00491087  RH  037%=      5-min Rain = 0
KDC1 111801Z 21007KT 05/M09 A3019 RMK A01 T00501088  RH  036%=      5-min Rain = 0
KDC1 111802Z 21004G9KT 05/M09 A3019 RMK A01 T00511088  RH  036%=      5-min Rain = 0
KDC1 111803Z 20004KT 05/M08 A3019 RMK A01 T00541084  RH  036%=      5-min Rain = 0
KDC1 111804Z 22004KT 06/M09 A3019 RMK A01 T00561086  RH  035%=      5-min Rain = 0
KDC1 111805Z 19006KT 06/M09 A3019 RMK A01 T00551088  RH  035%=      5-min Rain = 0
KDC1 111806Z 20005KT 05/M09 A3019 RMK A01 T00491094  RH  035%=      5-min Rain = 0
KDC1 111807Z 19006KT 05/M09 A3019 RMK A01 T00471091  RH  036%=      5-min Rain = 0
KDC1 111808Z 19006KT 05/M09 A3019 RMK A01 T00501088  RH  036%=      5-min Rain = 0
KDC1 111809Z 18008KT 05/M09 A3019 RMK A01 T00521089  RH  035%=      5-min Rain = 0
KDC1 111810Z 18006KT 05/M09 A3018 RMK A01 T00511091  RH  035%=      5-min Rain = 0
KDC1 111811Z 18005KT 05/M09 A3018 RMK A01 T00511090  RH  035%=      5-min Rain = 0
KDC1 111812Z 19005KT 05/M09 A3018 RMK A01 T00521090  RH  035%=      5-min Rain = 0
KDC1 111813Z 19005KT 05/M09 A3018 RMK A01 T00541088  RH  035%=      5-min Rain = 0
KDC1 111814Z 17006KT 05/M09 A3018 RMK A01 T00541090  RH  035%=      5-min Rain = 0
KDC1 111815Z 19006KT 05/M09 A3018 RMK A01 T00521090  RH  035%=      5-min Rain = 0
KDC1 111816Z 19005KT 05/M09 A3018 RMK A01 T00531089  RH  035%=      5-min Rain = 0
KDC1 111817Z 18005KT 05/M09 A3018 RMK A01 T00511092  RH  035%=      5-min Rain = 0
KDC1 111818Z 19004KT 05/M09 A3018 RMK A01 T00501091  RH  035%=      5-min Rain = 0
KDC1 111819Z 17005KT 05/M09 A3018 RMK A01 T00541088  RH  035%=      5-min Rain = 0
KDC1 111820Z 22005KT 06/M09 A3018 RMK A01 T00551089  RH  035%=      5-min Rain = 0
KDC1 111821Z 22004KT 05/M09 A3018 RMK A01 T00541090  RH  035%=      5-min Rain = 0
KDC1 111822Z 18002KT 05/M09 A3018 RMK A01 T00521090  RH  035%=      5-min Rain = 0
KDC1 111823Z 20005KT 05/M09 A3018 RMK A01 T00511091  RH  035%=      5-min Rain = 0
KDC1 111824Z 21005KT 05/M09 A3018 RMK A01 T00531088  RH  035%=      5-min Rain = 0
KDC1 111825Z 20004KT 05/M09 A3018 RMK A01 T00541089  RH  035%=      5-min Rain = 0
KDC1 111826Z 20002KT 05/M09 A3018 RMK A01 T00531091  RH  034%=      5-min Rain = 0
KDC1 111827Z 19004KT 05/M09 A3018 RMK A01 T00541089  RH  035%=      5-min Rain = 0
KDC1 111828Z 18006KT 06/M09 A3018 RMK A01 T00561089  RH  034%=      5-min Rain = 0
KDC1 111829Z 22006KT 06/M09 A3018 RMK A01 T00551090  RH  034%=      5-min Rain = 0
KDC1 111830Z 23004KT 05/M09 A3018 RMK A01 T00521091  RH  035%=      5-min Rain = 0
KDC1 111831Z 21002KT 05/M09 A3018 RMK A01 T00501091  RH  035%=      5-min Rain = 0
KDC1 111832Z 22004KT 05/M09 A3018 RMK A01 T00511090  RH  035%=      5-min Rain = 0
KDC1 111833Z 20007KT 05/M09 A3018 RMK A01 T00521089  RH  035%=      5-min Rain = 0
KDC1 111834Z 20006KT 05/M09 A3018 RMK A01 T00521091  RH  035%=      5-min Rain = 0
KDC1 111835Z 20004KT 05/M09 A3018 RMK A01 T00501092  RH  035%=      5-min Rain = 0
KDC1 111836Z 21005KT 05/M09 A3018 RMK A01 T00501091  RH  035%=      5-min Rain = 0
KDC1 111837Z 19005KT 05/M09 A3018 RMK A01 T00501090  RH  036%=      5-min Rain = 0
KDC1 111838Z 19004KT 05/M09 A3018 RMK A01 T00511090  RH  035%=      5-min Rain = 0
KDC1 111839Z 22004KT 05/M09 A3018 RMK A01 T00511091  RH  035%=      5-min Rain = 0
KDC1 111840Z 21006KT 05/M09 A3018 RMK A01 T00511090  RH  035%=      5-min Rain = 0
KDC1 111841Z 22007KT 05/M09 A3018 RMK A01 T00491091  RH  035%=      5-min Rain = 0
KDC1 111842Z 22005KT 05/M09 A3018 RMK A01 T00471092  RH  036%=      5-min Rain = 0
KDC1 111843Z 23005KT 05/M09 A3018 RMK A01 T00461090  RH  036%=      5-min Rain = 0
KDC1 111844Z 24004KT 05/M09 A3018 RMK A01 T00461089  RH  037%=      5-min Rain = 0
KDC1 111845Z 23005KT 05/M09 A3018 RMK A01 T00471088  RH  037%=      5-min Rain = 0
KDC1 111846Z 23005KT 05/M09 A3018 RMK A01 T00481087  RH  037%=      5-min Rain = 0
KDC1 111847Z 25006KT 05/M09 A3018 RMK A01 T00481089  RH  036%=      5-min Rain = 0
KDC1 111848Z 25004KT 05/M09 A3018 RMK A01 T00471090  RH  037%=      5-min Rain = 0
KDC1 111849Z 19005KT 05/M09 A3018 RMK A01 T00481089  RH  036%=      5-min Rain = 0
KDC1 111850Z 17005KT 05/M09 A3018 RMK A01 T00471091  RH  036%=      5-min Rain = 0
KDC1 111851Z 15008KT 05/M09 A3017 RMK A01 T00471091  RH  036%=      5-min Rain = 0
KDC1 111852Z 16008KT 05/M09 A3018 RMK A01 T00471091  RH  036%=      5-min Rain = 0
KDC1 111853Z 16008KT 05/M09 A3017 RMK A01 T00461091  RH  036%=      5-min Rain = 0
KDC1 111854Z 16010KT 05/M09 A3017 RMK A01 T00451091  RH  036%=      5-min Rain = 0
KDC1 111855Z 16007KT 05/M09 A3017 RMK A01 T00451092  RH  036%=      5-min Rain = 0
KDC1 111856Z 16007KT 05/M09 A3017 RMK A01 T00451091  RH  037%=      5-min Rain = 0
KDC1 111857Z 17009KT 05/M09 A3017 RMK A01 T00471090  RH  036%=      5-min Rain = 0
KDC1 111858Z 18006KT 05/M09 A3017 RMK A01 T00471091  RH  036%=      5-min Rain = 0
KDC1 111859Z 17006KT 05/M09 A3017 RMK A01 T00471090  RH  036%=      5-min Rain = 0
KDC1 111900Z 16006KT 05/M09 A3017 RMK A01 T00481089  RH  036%=      5-min Rain = 0
KDC1 111901Z 15006KT 05/M09 A3017 RMK A01 T00491090  RH  036%=      5-min Rain = 0
KDC1 111902Z 16008KT 05/M09 A3017 RMK A01 T00481089  RH  036%=      5-min Rain = 0
KDC1 111903Z 18007KT 05/M09 A3017 RMK A01 T00491090  RH  036%=      5-min Rain = 0
KDC1 111904Z 18006KT 05/M09 A3017 RMK A01 T00481091  RH  036%=      5-min Rain = 0
KDC1 111905Z 15006KT 05/M09 A3017 RMK A01 T00481090  RH  036%=      5-min Rain = 0
KDC1 111906Z 17007KT 05/M09 A3017 RMK A01 T00491090  RH  036%=      5-min Rain = 0
KDC1 111907Z 15007KT 05/M09 A3017 RMK A01 T00491090  RH  036%=      5-min Rain = 0
KDC1 111908Z 16005KT 05/M09 A3017 RMK A01 T00501090  RH  036%=      5-min Rain = 0
KDC1 111909Z 19006KT 05/M09 A3017 RMK A01 T00511089  RH  036%=      5-min Rain = 0
KDC1 111910Z 17005KT 05/M09 A3017 RMK A01 T00531088  RH  035%=      5-min Rain = 0
KDC1 111911Z 16007KT 05/M09 A3017 RMK A01 T00531089  RH  035%=      5-min Rain = 0
KDC1 111912Z 16008KT 05/M09 A3017 RMK A01 T00521088  RH  035%=      5-min Rain = 0
KDC1 111913Z 18007KT 05/M09 A3016 RMK A01 T00521089  RH  035%=      5-min Rain = 0
KDC1 111914Z 16006KT 05/M09 A3016 RMK A01 T00521089  RH  036%=      5-min Rain = 0
KDC1 111915Z 14006KT 05/M09 A3016 RMK A01 T00531088  RH  035%=      5-min Rain = 0
KDC1 111916Z 17005KT 05/M09 A3016 RMK A01 T00531088  RH  035%=      5-min Rain = 0
KDC1 111917Z 19004KT 05/M09 A3016 RMK A01 T00531088  RH  035%=      5-min Rain = 0
KDC1 111918Z 16002KT 05/M09 A3016 RMK A01 T00521089  RH  035%=      5-min Rain = 0
KDC1 111919Z 18004KT 05/M09 A3016 RMK A01 T00511089  RH  035%=      5-min Rain = 0
KDC1 111920Z 18005KT 05/M09 A3016 RMK A01 T00531088  RH  036%=      5-min Rain = 0
KDC1 111921Z 17004KT 05/M09 A3016 RMK A01 T00541088  RH  035%=      5-min Rain = 0
KDC1 111922Z 15006KT 05/M09 A3016 RMK A01 T00531089  RH  035%=      5-min Rain = 0
KDC1 111923Z 15007KT 05/M09 A3016 RMK A01 T00531088  RH  035%=      5-min Rain = 0
KDC1 111924Z 16005KT 05/M09 A3016 RMK A01 T00531089  RH  035%=      5-min Rain = 0
KDC1 111925Z 17006KT 05/M09 A3016 RMK A01 T00521088  RH  036%=      5-min Rain = 0
KDC1 111926Z 16007KT 05/M09 A3016 RMK A01 T00521089  RH  035%=      5-min Rain = 0
KDC1 111927Z 16008KT 05/M09 A3016 RMK A01 T00511089  RH  036%=      5-min Rain = 0
KDC1 111928Z 16007KT 05/M09 A3016 RMK A01 T00511089  RH  036%=      5-min Rain = 0
KDC1 111929Z 15005KT 05/M09 A3016 RMK A01 T00501089  RH  036%=      5-min Rain = 0
KDC1 111930Z 16008KT 05/M09 A3016 RMK A01 T00501088  RH  036%=      5-min Rain = 0
KDC1 111931Z 18007KT 05/M09 A3016 RMK A01 T00501089  RH  036%=      5-min Rain = 0
KDC1 111932Z 20006KT 05/M09 A3016 RMK A01 T00501090  RH  036%=      5-min Rain = 0
KDC1 111933Z 21005KT 05/M09 A3016 RMK A01 T00501089  RH  036%=      5-min Rain = 0
KDC1 111934Z 21004KT 05/M09 A3016 RMK A01 T00501089  RH  036%=      5-min Rain = 0
KDC1 111935Z 20005KT 05/M09 A3016 RMK A01 T00511089  RH  036%=      5-min Rain = 0
KDC1 111936Z 20004KT 05/M09 A3016 RMK A01 T00511089  RH  036%=      5-min Rain = 0
KDC1 111937Z 21004KT 05/M09 A3015 RMK A01 T00531088  RH  036%=      5-min Rain = 0
KDC1 111938Z 18003KT 05/M09 A3015 RMK A01 T00531088  RH  035%=      5-min Rain = 0
KDC1 111939Z 21004KT 05/M09 A3015 RMK A01 T00541088  RH  035%=      5-min Rain = 0
KDC1 111940Z 20005KT 06/M09 A3015 RMK A01 T00551089  RH  035%=      5-min Rain = 0
KDC1 111941Z 16005KT 05/M09 A3015 RMK A01 T00541089  RH  035%=      5-min Rain = 0
KDC1 111942Z 16007KT 06/M09 A3015 RMK A01 T00551087  RH  035%=      5-min Rain = 0
KDC1 111943Z 16006KT 06/M09 A3015 RMK A01 T00561088  RH  035%=      5-min Rain = 0
KDC1 111944Z 20006KT 06/M09 A3015 RMK A01 T00551089  RH  035%=      5-min Rain = 0
KDC1 111945Z 18007KT 06/M09 A3015 RMK A01 T00561088  RH  035%=      5-min Rain = 0
KDC1 111946Z 18006KT 06/M09 A3015 RMK A01 T00561089  RH  035%=      5-min Rain = 0
KDC1 111947Z 17006KT 06/M09 A3015 RMK A01 T00571087  RH  035%=      5-min Rain = 0
KDC1 111948Z 15005KT 06/M09 A3015 RMK A01 T00591086  RH  035%=      5-min Rain = 0
KDC1 111949Z 16006KT 06/M09 A3015 RMK A01 T00591087  RH  034%=      5-min Rain = 0
KDC1 111950Z 16008KT 06/M09 A3014 RMK A01 T00581088  RH  034%=      5-min Rain = 0
KDC1 111951Z 15006KT 06/M09 A3014 RMK A01 T00571088  RH  034%=      5-min Rain = 0
KDC1 111952Z 15005KT 06/M09 A3014 RMK A01 T00571088  RH  034%=      5-min Rain = 0
KDC1 111953Z 17006KT 06/M09 A3014 RMK A01 T00601085  RH  035%=      5-min Rain = 0
KDC1 111954Z 17007KT 06/M09 A3014 RMK A01 T00631085  RH  034%=      5-min Rain = 0
KDC1 111955Z 18006KT 06/M09 A3014 RMK A01 T00631088  RH  033%=      5-min Rain = 0
KDC1 111956Z 21005KT 06/M09 A3014 RMK A01 T00621087  RH  033%=      5-min Rain = 0
KDC1 111957Z 21005KT 06/M09 A3014 RMK A01 T00611087  RH  034%=      5-min Rain = 0
KDC1 111958Z 18005KT 06/M09 A3014 RMK A01 T00621085  RH  034%=      5-min Rain = 0
KDC1 111959Z 17006KT 06/M09 A3014 RMK A01 T00641085  RH  033%=      5-min Rain = 0
KDC1 112000Z 16005KT 06/M09 A3014 RMK A01 T00631087  RH  033%=      5-min Rain = 0
KDC1 112001Z 14006KT 06/M09 A3014 RMK A01 T00631087  RH  033%=      5-min Rain = 0
KDC1 112002Z 14006KT 06/M09 A3014 RMK A01 T00611088  RH  033%=      5-min Rain = 0
KDC1 112003Z 14006KT 06/M09 A3014 RMK A01 T00591088  RH  034%=      5-min Rain = 0
KDC1 112004Z 14005KT 06/M09 A3014 RMK A01 T00601086  RH  034%=      5-min Rain = 0
KDC1 112005Z 15006KT 06/M09 A3013 RMK A01 T00601087  RH  034%=      5-min Rain = 0
KDC1 112006Z 17005KT 06/M08 A3013 RMK A01 T00611084  RH  034%=      5-min Rain = 0
KDC1 112007Z 16006KT 06/M09 A3013 RMK A01 T00621086  RH  034%=      5-min Rain = 0
KDC1 112008Z 17006KT 06/M09 A3013 RMK A01 T00621087  RH  034%=      5-min Rain = 0
KDC1 112009Z 18006KT 06/M09 A3013 RMK A01 T00631086  RH  034%=      5-min Rain = 0
KDC1 112010Z 20005KT 06/M09 A3013 RMK A01 T00631086  RH  033%=      5-min Rain = 0
KDC1 112011Z 20004KT 06/M09 A3013 RMK A01 T00631087  RH  033%=      5-min Rain = 0
KDC1 112012Z 15006KT 06/M09 A3013 RMK A01 T00621087  RH  034%=      5-min Rain = 0
KDC1 112013Z 15005KT 06/M09 A3013 RMK A01 T00621087  RH  033%=      5-min Rain = 0
KDC1 112014Z 13005KT 06/M09 A3013 RMK A01 T00631086  RH  034%=      5-min Rain = 0
KDC1 112015Z 12006KT 06/M09 A3013 RMK A01 T00631087  RH  033%=      5-min Rain = 0
KDC1 112016Z 14006KT 06/M09 A3013 RMK A01 T00621087  RH  033%=      5-min Rain = 0
KDC1 112017Z 14005KT 06/M09 A3013 RMK A01 T00631086  RH  034%=      5-min Rain = 0
KDC1 112018Z 13002KT 06/M09 A3013 RMK A01 T00641086  RH  033%=      5-min Rain = 0
KDC1 112019Z 17006KT 06/M09 A3013 RMK A01 T00641085  RH  034%=      5-min Rain = 0
KDC1 112020Z 18005KT 07/M08 A3013 RMK A01 T00661084  RH  033%=      5-min Rain = 0
KDC1 112021Z 18005KT 07/M09 A3013 RMK A01 T00661085  RH  033%=      5-min Rain = 0
KDC1 112022Z 17007KT 07/M08 A3013 RMK A01 T00691083  RH  033%=      5-min Rain = 0
KDC1 112023Z 17008KT 07/M09 A3013 RMK A01 T00711085  RH  032%=      5-min Rain = 0
KDC1 112024Z 17007KT 07/M09 A3013 RMK A01 T00701085  RH  032%=      5-min Rain = 0
KDC1 112025Z 18006KT 07/M09 A3013 RMK A01 T00691086  RH  032%=      5-min Rain = 0
KDC1 112026Z 17007KT 07/M09 A3013 RMK A01 T00671086  RH  033%=      5-min Rain = 0
KDC1 112027Z 16006KT 07/M09 A3013 RMK A01 T00671086  RH  033%=      5-min Rain = 0
KDC1 112028Z 15005KT 07/M09 A3012 RMK A01 T00651086  RH  033%=      5-min Rain = 0
KDC1 112029Z 15004KT 06/M09 A3012 RMK A01 T00641085  RH  034%=      5-min Rain = 0
KDC1 112030Z 17005KT 07/M08 A3012 RMK A01 T00651084  RH  034%=      5-min Rain = 0
KDC1 112031Z 14005KT 07/M08 A3012 RMK A01 T00661084  RH  033%=      5-min Rain = 0
KDC1 112032Z 15004KT 07/M08 A3012 RMK A01 T00671084  RH  033%=      5-min Rain = 0
KDC1 112033Z 12005KT 07/M08 A3012 RMK A01 T00671084  RH  033%=      5-min Rain = 0
KDC1 112034Z 14006KT 07/M09 A3012 RMK A01 T00661085  RH  033%=      5-min Rain = 0
KDC1 112035Z 14004KT 07/M09 A3012 RMK A01 T00661085  RH  033%=      5-min Rain = 0
KDC1 112036Z 12003KT 07/M09 A3012 RMK A01 T00661085  RH  033%=      5-min Rain = 0
KDC1 112037Z 12002KT 07/M08 A3012 RMK A01 T00671084  RH  033%=      5-min Rain = 0
KDC1 112038Z 16003KT 07/M08 A3012 RMK A01 T00671084  RH  033%=      5-min Rain = 0
KDC1 112039Z 17004KT 07/M09 A3012 RMK A01 T00681085  RH  033%=      5-min Rain = 0
KDC1 112040Z 22003KT 07/M09 A3012 RMK A01 T00671086  RH  033%=      5-min Rain = 0
KDC1 112041Z 19002KT 07/M09 A3012 RMK A01 T00671085  RH  033%=      5-min Rain = 0
KDC1 112042Z 19005KT 07/M08 A3012 RMK A01 T00681084  RH  033%=      5-min Rain = 0
KDC1 112043Z 18007KT 07/M09 A3012 RMK A01 T00691085  RH  032%=      5-min Rain = 0
KDC1 112044Z 18006KT 07/M09 A3012 RMK A01 T00681086  RH  032%=      5-min Rain = 0
KDC1 112045Z 20005KT 07/M09 A3012 RMK A01 T00671086  RH  032%=      5-min Rain = 0
KDC1 112046Z 20004KT 07/M09 A3012 RMK A01 T00671086  RH  033%=      5-min Rain = 0
KDC1 112047Z 18005KT 07/M09 A3012 RMK A01 T00671086  RH  033%=      5-min Rain = 0
KDC1 112048Z 18005KT 07/M09 A3012 RMK A01 T00671085  RH  033%=      5-min Rain = 0
KDC1 112049Z 20005KT 07/M09 A3012 RMK A01 T00681085  RH  033%=      5-min Rain = 0
KDC1 112050Z 21003KT 07/M09 A3012 RMK A01 T00681086  RH  032%=      5-min Rain = 0
KDC1 112051Z 19005KT 07/M09 A3012 RMK A01 T00681085  RH  033%=      5-min Rain = 0
KDC1 112052Z 19006KT 07/M08 A3012 RMK A01 T00711084  RH  032%=      5-min Rain = 0
KDC1 112053Z 20004KT 07/M09 A3012 RMK A01 T00701086  RH  032%=      5-min Rain = 0
KDC1 112054Z 16002KT 07/M09 A3012 RMK A01 T00691086  RH  032%=      5-min Rain = 0
KDC1 112055Z 18003KT 07/M09 A3012 RMK A01 T00691085  RH  032%=      5-min Rain = 0
KDC1 112056Z 22002KT 07/M09 A3012 RMK A01 T00701085  RH  032%=      5-min Rain = 0
KDC1 112057Z 24004KT 07/M08 A3012 RMK A01 T00731084  RH  032%=      5-min Rain = 0
KDC1 112058Z 19002KT 07/M08 A3012 RMK A01 T00741082  RH  032%=      5-min Rain = 0
KDC1 112059Z 18004KT 08/M08 A3012 RMK A01 T00761082  RH  032%=      5-min Rain = 0
KDC1 112100Z 15005KT 08/M08 A3012 RMK A01 T00771084  RH  031%=      5-min Rain = 0
KDC1 112101Z 16003KT 07/M09 A3012 RMK A01 T00731087  RH  031%=      5-min Rain = 0
KDC1 112102Z 21003KT 07/M09 A3012 RMK A01 T00721086  RH  032%=      5-min Rain = 0
KDC1 112103Z 22004KT 07/M09 A3012 RMK A01 T00721085  RH  032%=      5-min Rain = 0
KDC1 112104Z 14006KT 07/M08 A3012 RMK A01 T00741082  RH  032%=      5-min Rain = 0
KDC1 112105Z 17007KT 08/M08 A3012 RMK A01 T00771082  RH  032%=      5-min Rain = 0
KDC1 112106Z 18006KT 08/M08 A3011 RMK A01 T00791082  RH  031%=      5-min Rain = 0
KDC1 112107Z 17007KT 08/M08 A3011 RMK A01 T00801083  RH  030%=      5-min Rain = 0
KDC1 112108Z 16005KT 08/M09 A3011 RMK A01 T00781086  RH  030%=      5-min Rain = 0
KDC1 112109Z 21005KT 08/M09 A3011 RMK A01 T00761086  RH  031%=      5-min Rain = 0
KDC1 112110Z 23004KT 08/M09 A3011 RMK A01 T00751087  RH  031%=      5-min Rain = 0
KDC1 112111Z 25003KT 07/M09 A3011 RMK A01 T00731087  RH  031%=      5-min Rain = 0
KDC1 112112Z 23004KT 07/M09 A3011 RMK A01 T00731085  RH  031%=      5-min Rain = 0
KDC1 112113Z 22003KT 07/M09 A3011 RMK A01 T00741085  RH  031%=      5-min Rain = 0
KDC1 112114Z 20003KT 08/M08 A3011 RMK A01 T00761084  RH  031%=      5-min Rain = 0
KDC1 112115Z 18003KT 08/M08 A3011 RMK A01 T00771084  RH  031%=      5-min Rain = 0
KDC1 112116Z 20001KT 08/M08 A3011 RMK A01 T00781084  RH  031%=      5-min Rain = 0
KDC1 112117Z 18002KT 08/M08 A3011 RMK A01 T00801082  RH  031%=      5-min Rain = 0
KDC1 112118Z 18005KT 08/M08 A3012 RMK A01 T00821081  RH  031%=      5-min Rain = 0
KDC1 112119Z 19005KT 08/M09 A3012 RMK A01 T00801085  RH  030%=      5-min Rain = 0
KDC1 112120Z 19004KT 08/M09 A3012 RMK A01 T00771087  RH  030%=      5-min Rain = 0
KDC1 112121Z 20004KT 07/M09 A3012 RMK A01 T00741086  RH  031%=      5-min Rain = 0
KDC1 112122Z 20004KT 07/M08 A3012 RMK A01 T00741084  RH  031%=      5-min Rain = 0
KDC1 112123Z 18004KT 08/M08 A3012 RMK A01 T00751084  RH  031%=      5-min Rain = 0
KDC1 112124Z 19002KT 07/M09 A3012 RMK A01 T00741086  RH  031%=      5-min Rain = 0
KDC1 112125Z 14005KT 07/M09 A3011 RMK A01 T00741085  RH  031%=      5-min Rain = 0
KDC1 112126Z 13006KT 08/M08 A3011 RMK A01 T00751083  RH  032%=      5-min Rain = 0
KDC1 112127Z 15004KT 08/M09 A3011 RMK A01 T00751085  RH  031%=      5-min Rain = 0
KDC1 112128Z 14006KT 07/M08 A3011 RMK A01 T00741084  RH  031%=      5-min Rain = 0
KDC1 112129Z 12006KT 07/M08 A3011 RMK A01 T00741084  RH  031%=      5-min Rain = 0
KDC1 112130Z 13005KT 08/M08 A3011 RMK A01 T00751084  RH  031%=      5-min Rain = 0
KDC1 112131Z 12005KT 08/M08 A3011 RMK A01 T00761084  RH  031%=      5-min Rain = 0
KDC1 112132Z 10006KT 08/M09 A3011 RMK A01 T00761085  RH  031%=      5-min Rain = 0
KDC1 112133Z 12004KT 08/M09 A3011 RMK A01 T00751085  RH  031%=      5-min Rain = 0
KDC1 112134Z 12003KT 07/M09 A3011 RMK A01 T00741085  RH  031%=      5-min Rain = 0
KDC1 112135Z 12006KT 08/M08 A3011 RMK A01 T00771082  RH  031%=      5-min Rain = 0
KDC1 112136Z 09007KT 08/M08 A3011 RMK A01 T00801082  RH  031%=      5-min Rain = 0
KDC1 112137Z 10007KT 08/M08 A3011 RMK A01 T00801083  RH  031%=      5-min Rain = 0
KDC1 112138Z 12009KT 08/M08 A3011 RMK A01 T00791083  RH  031%=      5-min Rain = 0
KDC1 112139Z 12009KT 08/M08 A3011 RMK A01 T00791084  RH  030%=      5-min Rain = 0
KDC1 112140Z 12008KT 08/M09 A3011 RMK A01 T00811085  RH  030%=      5-min Rain = 0
KDC1 112141Z 13007KT 08/M09 A3011 RMK A01 T00801087  RH  030%=      5-min Rain = 0
KDC1 112142Z 13007KT 08/M09 A3011 RMK A01 T00781086  RH  030%=      5-min Rain = 0
KDC1 112143Z 14008KT 08/M08 A3011 RMK A01 T00811082  RH  031%=      5-min Rain = 0
KDC1 112144Z 16009KT 08/M08 A3011 RMK A01 T00811084  RH  030%=      5-min Rain = 0
KDC1 112145Z 17008KT 08/M09 A3011 RMK A01 T00821085  RH  030%=      5-min Rain = 0
KDC1 112146Z 18005KT 08/M09 A3011 RMK A01 T00801087  RH  029%=      5-min Rain = 0
KDC1 112147Z 16008G13KT 08/M09 A3011 RMK A01 T00791087  RH  030%=      5-min Rain = 0
KDC1 112148Z 17006KT 08/M09 A3011 RMK A01 T00781088  RH  030%=      5-min Rain = 0
KDC1 112149Z 18006KT 08/M09 A3011 RMK A01 T00761088  RH  030%=      5-min Rain = 0
KDC1 112150Z 17010G15KT 08/M09 A3011 RMK A01 T00751088  RH  030%=      5-min Rain = 0
KDC1 112151Z 12009KT 08/M08 A3011 RMK A01 T00781084  RH  031%=      5-min Rain = 0
KDC1 112152Z 15010KT 08/M08 A3011 RMK A01 T00801084  RH  030%=      5-min Rain = 0
KDC1 112153Z 15008KT 08/M09 A3011 RMK A01 T00791086  RH  030%=      5-min Rain = 0
KDC1 112154Z 16008KT 08/M09 A3011 RMK A01 T00781085  RH  030%=      5-min Rain = 0
KDC1 112155Z 18006KT 08/M09 A3011 RMK A01 T00761088  RH  030%=      5-min Rain = 0
KDC1 112156Z 15008KT 07/M09 A3011 RMK A01 T00741088  RH  031%=      5-min Rain = 0
KDC1 112157Z 13010KT 07/M09 A3011 RMK A01 T00741085  RH  031%=      5-min Rain = 0
KDC1 112158Z 12007KT 08/M09 A3011 RMK A01 T00761085  RH  031%=      5-min Rain = 0
KDC1 112159Z 15008KT 08/M09 A3011 RMK A01 T00771086  RH  031%=      5-min Rain = 0
KDC1 112200Z 15009KT 08/M09 A3011 RMK A01 T00761087  RH  030%=      5-min Rain = 0
KDC1 112201Z 12012KT 08/M09 A3011 RMK A01 T00751085  RH  031%=      5-min Rain = 0
KDC1 112202Z 13012KT 08/M09 A3011 RMK A01 T00761086  RH  031%=      5-min Rain = 0
KDC1 112203Z 13009KT 08/M09 A3011 RMK A01 T00761087  RH  030%=      5-min Rain = 0
KDC1 112204Z 15008KT 08/M09 A3011 RMK A01 T00761087  RH  031%=      5-min Rain = 0
KDC1 112205Z 15009KT 08/M09 A3011 RMK A01 T00751086  RH  031%=      5-min Rain = 0
KDC1 112206Z 14010KT 08/M08 A3011 RMK A01 T00771083  RH  031%=      5-min Rain = 0
KDC1 112207Z 15010KT 08/M09 A3011 RMK A01 T00771086  RH  031%=      5-min Rain = 0
KDC1 112208Z 14010KT 07/M09 A3011 RMK A01 T00741088  RH  031%=      5-min Rain = 0
KDC1 112209Z 14010KT 07/M09 A3011 RMK A01 T00721089  RH  031%=      5-min Rain = 0
KDC1 112210Z 15008KT 07/M09 A3011 RMK A01 T00701089  RH  031%=      5-min Rain = 0
KDC1 112211Z 16008KT 07/M09 A3011 RMK A01 T00701088  RH  032%=      5-min Rain = 0
KDC1 112212Z 16008KT 07/M09 A3011 RMK A01 T00691087  RH  032%=      5-min Rain = 0
KDC1 112213Z 16008KT 07/M09 A3011 RMK A01 T00711086  RH  032%=      5-min Rain = 0
KDC1 112214Z 13009KT 07/M08 A3011 RMK A01 T00741082  RH  032%=      5-min Rain = 0
KDC1 112215Z 13009KT 07/M08 A3011 RMK A01 T00731083  RH  032%=      5-min Rain = 0
KDC1 112216Z 13010KT 07/M09 A3011 RMK A01 T00741085  RH  031%=      5-min Rain = 0
KDC1 112217Z 13008KT 07/M09 A3011 RMK A01 T00731086  RH  031%=      5-min Rain = 0
KDC1 112218Z 14010KT 07/M08 A3011 RMK A01 T00741083  RH  032%=      5-min Rain = 0
KDC1 112219Z 16011KT 08/M08 A3011 RMK A01 T00761084  RH  031%=      5-min Rain = 0
KDC1 112220Z 15008KT 07/M09 A3011 RMK A01 T00741088  RH  031%=      5-min Rain = 0
KDC1 112221Z 16008KT 07/M09 A3011 RMK A01 T00721087  RH  031%=      5-min Rain = 0
KDC1 112222Z 16011KT 07/M08 A3011 RMK A01 T00731084  RH  032%=      5-min Rain = 0
KDC1 112223Z 17010KT 07/M09 A3011 RMK A01 T00741086  RH  031%=      5-min Rain = 0
KDC1 112224Z 17009KT 07/M09 A3011 RMK A01 T00711087  RH  031%=      5-min Rain = 0
KDC1 112225Z 18007KT 07/M09 A3011 RMK A01 T00691088  RH  032%=      5-min Rain = 0
KDC1 112226Z 16008KT 07/M09 A3011 RMK A01 T00681087  RH  032%=      5-min Rain = 0
KDC1 112227Z 14009KT 07/M08 A3011 RMK A01 T00701084  RH  032%=      5-min Rain = 0
KDC1 112228Z 16008KT 07/M08 A3011 RMK A01 T00721083  RH  032%=      5-min Rain = 0
KDC1 112229Z 15009KT 07/M08 A3011 RMK A01 T00721082  RH  032%=      5-min Rain = 0
KDC1 112230Z 15008KT 07/M08 A3011 RMK A01 T00741082  RH  032%=      5-min Rain = 0
KDC1 112231Z 15010KT 08/M08 A3011 RMK A01 T00751083  RH  032%=      5-min Rain = 0
KDC1 112232Z 15011KT 07/M08 A3011 RMK A01 T00741083  RH  032%=      5-min Rain = 0
KDC1 112233Z 16010KT 07/M08 A3011 RMK A01 T00741084  RH  032%=      5-min Rain = 0
KDC1 112234Z 16008KT 07/M09 A3011 RMK A01 T00721086  RH  031%=      5-min Rain = 0
KDC1 112235Z 18007KT 07/M09 A3011 RMK A01 T00711086  RH  032%=      5-min Rain = 0
KDC1 112236Z 17006KT 07/M09 A301 RMK A01 T00711086  RH  032%=      5-min Rain = 0
KDC1 112237Z 17008KT 07/M09 A301 RMK A01 T00711086  RH  032%=      5-min Rain = 0
KDC1 112238Z 15008KT 07/M08 A3011 RMK A01 T00721084  RH  032%=      5-min Rain = 0
KDC1 112239Z 15010KT 08/M08 A301 RMK A01 T00751082  RH  032%=      5-min Rain = 0
KDC1 112240Z 15010KT 08/M08 A301 RMK A01 T00751084  RH  031%=      5-min Rain = 0
KDC1 112241Z 16008KT 07/M09 A301 RMK A01 T00741085  RH  031%=      5-min Rain = 0
KDC1 112242Z 15008KT 07/M09 A301 RMK A01 T00741085  RH  031%=      5-min Rain = 0
KDC1 112243Z 15008KT 07/M09 A301 RMK A01 T00741085  RH  031%=      5-min Rain = 0
KDC1 112244Z 15007KT 07/M09 A301 RMK A01 T00741085  RH  031%=      5-min Rain = 0
KDC1 112245Z 15011KT 07/M08 A301 RMK A01 T00741084  RH  032%=      5-min Rain = 0
KDC1 112246Z 16009KT 07/M08 A301 RMK A01 T00741084  RH  031%=      5-min Rain = 0
KDC1 112247Z 15009KT 08/M08 A301 RMK A01 T00751084  RH  031%=      5-min Rain = 0
KDC1 112248Z 15009KT 07/M08 A301 RMK A01 T00741084  RH  031%=      5-min Rain = 0
KDC1 112249Z 16007KT 07/M09 A301 RMK A01 T00741085  RH  031%=      5-min Rain = 0
KDC1 112250Z 15008KT 07/M09 A301 RMK A01 T00741085  RH  031%=      5-min Rain = 0
KDC1 112251Z 14010KT 08/M08 A301 RMK A01 T00751083  RH  032%=      5-min Rain = 0
KDC1 112252Z 15010KT 08/M08 A301 RMK A01 T00751084  RH  031%=      5-min Rain = 0
KDC1 112253Z 15010KT 08/M09 A301 RMK A01 T00761085  RH  031%=      5-min Rain = 0
KDC1 112254Z 15009KT 08/M08 A301 RMK A01 T00761084  RH  031%=      5-min Rain = 0
KDC1 112255Z 15007KT 08/M09 A3011 RMK A01 T00761085  RH  031%=      5-min Rain = 0
KDC1 112256Z 17007KT 08/M09 A301 RMK A01 T00751087  RH  031%=      5-min Rain = 0
KDC1 112257Z 16007KT 08/M09 A301 RMK A01 T00751086  RH  031%=      5-min Rain = 0
KDC1 112258Z 16007KT 08/M08 A301 RMK A01 T00751084  RH  031%=      5-min Rain = 0
KDC1 112259Z 16008KT 08/M08 A301 RMK A01 T00751083  RH  031%=      5-min Rain = 0
KDC1 112300Z 17007KT 07/M08 A301 RMK A01 T00741084  RH  032%=      5-min Rain = 0
KDC1 112301Z 15007KT 07/M09 A3011 RMK A01 T00731085  RH  032%=      5-min Rain = 0
KDC1 112302Z 16008KT 07/M08 A3011 RMK A01 T00731084  RH  032%=      5-min Rain = 0
KDC1 112303Z 16008KT 07/M09 A3011 RMK A01 T00731085  RH  032%=      5-min Rain = 0
KDC1 112304Z 15009KT 07/M09 A3011 RMK A01 T00721085  RH  032%=      5-min Rain = 0
KDC1 112305Z 15007KT 07/M09 A3011 RMK A01 T00721086  RH  032%=      5-min Rain = 0
KDC1 112306Z 15005KT 07/M09 A3011 RMK A01 T00721086  RH  032%=      5-min Rain = 0
KDC1 112307Z 16006KT 07/M09 A3011 RMK A01 T00711085  RH  032%=      5-min Rain = 0
KDC1 112308Z 17008KT 07/M09 A3011 RMK A01 T00711085  RH  032%=      5-min Rain = 0
KDC1 112309Z 16007KT 07/M08 A3011 RMK A01 T00711084  RH  032%=      5-min Rain = 0
KDC1 112310Z 15006KT 07/M08 A3011 RMK A01 T00711083  RH  032%=      5-min Rain = 0
KDC1 112311Z 15007KT 07/M08 A3011 RMK A01 T00721082  RH  032%=      5-min Rain = 0
KDC1 112312Z 15007KT 07/M08 A3011 RMK A01 T00721083  RH  032%=      5-min Rain = 0
KDC1 112313Z 16006KT 07/M08 A3011 RMK A01 T00721084  RH  032%=      5-min Rain = 0
KDC1 112314Z 18005KT 07/M08 A3011 RMK A01 T00721083  RH  032%=      5-min Rain = 0
KDC1 112315Z 17008KT 07/M08 A3011 RMK A01 T00731083  RH  032%=      5-min Rain = 0
KDC1 112316Z 16007KT 07/M08 A3011 RMK A01 T00741084  RH  032%=      5-min Rain = 0
KDC1 112317Z 17006KT 07/M08 A3011 RMK A01 T00741084  RH  032%=      5-min Rain = 0
KDC1 112318Z 17007KT 07/M08 A3011 RMK A01 T00741083  RH  032%=      5-min Rain = 0
KDC1 112319Z 16008KT 07/M08 A3011 RMK A01 T00741082  RH  032%=      5-min Rain = 0
KDC1 112320Z 14010KT 08/M08 A3011 RMK A01 T00751080  RH  032%=      5-min Rain = 0
KDC1 112321Z 15009KT 08/M08 A3011 RMK A01 T00761082  RH  032%=      5-min Rain = 0
KDC1 112322Z 16009KT 08/M08 A3011 RMK A01 T00761083  RH  031%=      5-min Rain = 0
KDC1 112323Z 15008KT 08/M08 A3011 RMK A01 T00751083  RH  032%=      5-min Rain = 0
KDC1 112324Z 15008KT 07/M08 A3011 RMK A01 T00741083  RH  032%=      5-min Rain = 0
KDC1 112325Z 16009KT 07/M08 A3011 RMK A01 T00741083  RH  032%=      5-min Rain = 0
KDC1 112326Z 15008KT 08/M08 A3011 RMK A01 T00751082  RH  032%=      5-min Rain = 0
KDC1 112327Z 15009KT 08/M08 A3011 RMK A01 T00751081  RH  032%=      5-min Rain = 0
KDC1 112328Z 16009KT 08/M08 A3011 RMK A01 T00761081  RH  032%=      5-min Rain = 0
KDC1 112329Z 16010KT 08/M08 A3011 RMK A01 T00761081  RH  032%=      5-min Rain = 0
KDC1 112330Z 16011KT 07/M08 A3011 RMK A01 T00741082  RH  032%=      5-min Rain = 0
KDC1 112331Z 16010KT 07/M08 A3011 RMK A01 T00731081  RH  032%=      5-min Rain = 0
KDC1 112332Z 16008KT 07/M08 A3011 RMK A01 T00731080  RH  033%=      5-min Rain = 0
KDC1 112333Z 16008KT 07/M08 A3011 RMK A01 T00731080  RH  033%=      5-min Rain = 0
KDC1 112334Z 16010KT 07/M08 A3011 RMK A01 T00731080  RH  033%=      5-min Rain = 0
KDC1 112335Z 15009KT 07/M08 A3011 RMK A01 T00731080  RH  033%=      5-min Rain = 0
KDC1 112336Z 16010KT 07/M08 A3011 RMK A01 T00731080  RH  033%=      5-min Rain = 0
KDC1 112337Z 15010KT 07/M08 A3011 RMK A01 T00721082  RH  033%=      5-min Rain = 0
KDC1 112338Z 15009KT 07/M08 A3011 RMK A01 T00711081  RH  033%=      5-min Rain = 0
KDC1 112339Z 14010KT 07/M08 A3011 RMK A01 T00711080  RH  033%=      5-min Rain = 0
KDC1 112340Z 15011KT 07/M08 A3011 RMK A01 T00711080  RH  033%=      5-min Rain = 0
KDC1 112341Z 15008KT 07/M08 A3011 RMK A01 T00711079  RH  034%=      5-min Rain = 0
KDC1 112342Z 15011KT 07/M08 A3011 RMK A01 T00711078  RH  034%=      5-min Rain = 0
KDC1 112343Z 15011KT 07/M08 A3011 RMK A01 T00701080  RH  033%=      5-min Rain = 0
KDC1 112344Z 15010KT 07/M08 A3011 RMK A01 T00701081  RH  033%=      5-min Rain = 0
KDC1 112345Z 16010KT 07/M08 A3011 RMK A01 T00691082  RH  033%=      5-min Rain = 0
KDC1 112346Z 15008KT 07/M08 A3011 RMK A01 T00691082  RH  033%=      5-min Rain = 0
KDC1 112347Z 15009KT 07/M08 A3011 RMK A01 T00691080  RH  034%=      5-min Rain = 0
KDC1 112348Z 16010KT 07/M08 A3011 RMK A01 T00691079  RH  034%=      5-min Rain = 0
KDC1 112349Z 16010KT 07/M08 A3011 RMK A01 T00691080  RH  034%=      5-min Rain = 0
KDC1 112350Z 16010KT 07/M08 A3011 RMK A01 T00691080  RH  034%=      5-min Rain = 0
KDC1 112351Z 16010KT 07/M08 A3011 RMK A01 T00691080  RH  034%=      5-min Rain = 0
KDC1 112352Z 15010KT 07/M08 A3011 RMK A01 T00681079  RH  034%=      5-min Rain = 0
KDC1 112353Z 15010KT 07/M08 A3011 RMK A01 T00691079  RH  034%=      5-min Rain = 0
KDC1 112354Z 15011KT 07/M08 A3011 RMK A01 T00691079  RH  034%=      5-min Rain = 0
KDC1 112355Z 15011KT 07/M08 A3011 RMK A01 T00691080  RH  034%=      5-min Rain = 0
KDC1 112356Z 15010KT 07/M08 A3011 RMK A01 T00691078  RH  034%=      5-min Rain = 0
KDC1 112357Z 15010KT 07/M08 A3011 RMK A01 T00691077  RH  034%=      5-min Rain = 0
KDC1 112358Z 15011KT 07/M08 A301 RMK A01 T00691076  RH  035%=      5-min Rain = 0
KDC1 112359Z 15012KT 07/M08 A301 RMK A01 T00691077  RH  034%=      5-min Rain = 0
KDC1 120000Z 14012KT 07/M08 A301 RMK A01 T00691078  RH  034%=      5-min Rain = 0
KDC1 120001Z 15011KT 07/M08 A3011 RMK A01 T00681077  RH  035%=      5-min Rain = 0
KDC1 120002Z 15010KT 07/M08 A3011 RMK A01 T00681078  RH  035%=      5-min Rain = 0
KDC1 120003Z 16010KT 07/M08 A3011 RMK A01 T00671077  RH  035%=      5-min Rain = 0
KDC1 120004Z 15011KT 07/M08 A3011 RMK A01 T00671079  RH  035%=      5-min Rain = 0
KDC1 120005Z 15009KT 07/M08 A3011 RMK A01 T00661079  RH  035%=      5-min Rain = 0
KDC1 120006Z 15010KT 07/M08 A3011 RMK A01 T00661078  RH  035%=      5-min Rain = 0
KDC1 120007Z 16009KT 07/M08 A3011 RMK A01 T00661077  RH  035%=      5-min Rain = 0
KDC1 120008Z 16010KT 07/M08 A3011 RMK A01 T00661077  RH  035%=      5-min Rain = 0
KDC1 120009Z 15008KT 07/M08 A3011 RMK A01 T00661076  RH  035%=      5-min Rain = 0
KDC1 120010Z 15010KT 07/M08 A3011 RMK A01 T00661076  RH  036%=      5-min Rain = 0
KDC1 120011Z 15009KT 07/M08 A3011 RMK A01 T00661076  RH  036%=      5-min Rain = 0
KDC1 120012Z 15009KT 07/M08 A3011 RMK A01 T00651077  RH  035%=      5-min Rain = 0
KDC1 120013Z 15010KT 07/M08 A3011 RMK A01 T00661076  RH  035%=      5-min Rain = 0
KDC1 120014Z 16009KT 07/M08 A3011 RMK A01 T00651077  RH  036%=      5-min Rain = 0
KDC1 120015Z 16009KT 06/M08 A3011 RMK A01 T00641077  RH  036%=      5-min Rain = 0
KDC1 120016Z 15010KT 06/M08 A3011 RMK A01 T00641078  RH  036%=      5-min Rain = 0
KDC1 120017Z 15011KT 06/M08 A3011 RMK A01 T00641078  RH  035%=      5-min Rain = 0
KDC1 120018Z 15012KT 06/M08 A3011 RMK A01 T00631078  RH  036%=      5-min Rain = 0
KDC1 120019Z 15012KT 06/M08 A3011 RMK A01 T00631077  RH  036%=      5-min Rain = 0
KDC1 120020Z 15011KT 06/M08 A3011 RMK A01 T00631078  RH  036%=      5-min Rain = 0
KDC1 120021Z 15009KT 06/M08 A3011 RMK A01 T00621076  RH  036%=      5-min Rain = 0
KDC1 120022Z 16009KT 06/M08 A3011 RMK A01 T00621076  RH  036%=      5-min Rain = 0
KDC1 120023Z 16008KT 06/M08 A3011 RMK A01 T00621076  RH  036%=      5-min Rain = 0
KDC1 120024Z 15008KT 06/M08 A3011 RMK A01 T00621076  RH  037%=      5-min Rain = 0
KDC1 120025Z 16008KT 06/M08 A3011 RMK A01 T00611076  RH  037%=      5-min Rain = 0
KDC1 120026Z 15009KT 06/M08 A3011 RMK A01 T00611076  RH  037%=      5-min Rain = 0
KDC1 120027Z 15010KT 06/M08 A3011 RMK A01 T00601076  RH  037%=      5-min Rain = 0
KDC1 120028Z 15009KT 06/M08 A3011 RMK A01 T00601076  RH  037%=      5-min Rain = 0
KDC1 120029Z 15009KT 06/M08 A3011 RMK A01 T00591075  RH  037%=      5-min Rain = 0
KDC1 120030Z 15009KT 06/M08 A3011 RMK A01 T00591075  RH  038%=      5-min Rain = 0
KDC1 120031Z 15008KT 06/M08 A3011 RMK A01 T00581075  RH  038%=      5-min Rain = 0
KDC1 120032Z 15008KT 06/M08 A3011 RMK A01 T00581075  RH  038%=      5-min Rain = 0
KDC1 120033Z 16007KT 06/M08 A3011 RMK A01 T00581075  RH  038%=      5-min Rain = 0
KDC1 120034Z 16007KT 06/M07 A3011 RMK A01 T00581074  RH  038%=      5-min Rain = 0
KDC1 120035Z 16007KT 06/M07 A3011 RMK A01 T00571074  RH  038%=      5-min Rain = 0
KDC1 120036Z 16006KT 06/M07 A3012 RMK A01 T00571074  RH  038%=      5-min Rain = 0
KDC1 120037Z 16006KT 06/M07 A3012 RMK A01 T00561073  RH  039%=      5-min Rain = 0
KDC1 120038Z 16008KT 06/M07 A3012 RMK A01 T00551072  RH  039%=      5-min Rain = 0
KDC1 120039Z 16007KT 06/M07 A3012 RMK A01 T00561073  RH  039%=      5-min Rain = 0
KDC1 120040Z 16007KT 06/M07 A3012 RMK A01 T00551074  RH  039%=      5-min Rain = 0
KDC1 120041Z 16007KT 06/M07 A3012 RMK A01 T00551074  RH  039%=      5-min Rain = 0
KDC1 120042Z 16007KT 06/M07 A3012 RMK A01 T00551073  RH  039%=      5-min Rain = 0
KDC1 120043Z 16007KT 06/M07 A3012 RMK A01 T00551073  RH  039%=      5-min Rain = 0
KDC1 120044Z 16006KT 06/M07 A3012 RMK A01 T00551072  RH  039%=      5-min Rain = 0
KDC1 120045Z 16007KT 05/M07 A3012 RMK A01 T00541072  RH  040%=      5-min Rain = 0
KDC1 120046Z 16006KT 05/M07 A3011 RMK A01 T00541073  RH  039%=      5-min Rain = 0
KDC1 120047Z 16006KT 05/M07 A3011 RMK A01 T00531074  RH  039%=      5-min Rain = 0
KDC1 120048Z 16006KT 05/M07 A3011 RMK A01 T00521074  RH  040%=      5-min Rain = 0
KDC1 120049Z 16005KT 05/M08 A3011 RMK A01 T00521075  RH  039%=      5-min Rain = 0
KDC1 120050Z 16005KT 05/M07 A3011 RMK A01 T00521074  RH  040%=      5-min Rain = 0
KDC1 120051Z 16004KT 05/M07 A3011 RMK A01 T00521073  RH  040%=      5-min Rain = 0
KDC1 120052Z 16004KT 05/M07 A3011 RMK A01 T00511073  RH  040%=      5-min Rain = 0
KDC1 120053Z 16005KT 05/M07 A3011 RMK A01 T00511073  RH  040%=      5-min Rain = 0
KDC1 120054Z 15006KT 05/M07 A3011 RMK A01 T00501073  RH  041%=      5-min Rain = 0
KDC1 120055Z 16006KT 05/M07 A3011 RMK A01 T00501073  RH  040%=      5-min Rain = 0
KDC1 120056Z 15006KT 05/M07 A3011 RMK A01 T00501073  RH  041%=      5-min Rain = 0
KDC1 120057Z 15006KT 05/M07 A3011 RMK A01 T00491073  RH  041%=      5-min Rain = 0
KDC1 120058Z 16005KT 05/M07 A3011 RMK A01 T00491074  RH  040%=      5-min Rain = 0
KDC1 120059Z 15005KT 05/M08 A3011 RMK A01 T00491075  RH  040%=      5-min Rain = 0
KDC1 120100Z 16004KT 05/M07 A3011 RMK A01 T00491074  RH  041%=      5-min Rain = 0
KDC1 120101Z 16005KT 05/M07 A3011 RMK A01 T00481074  RH  041%=      5-min Rain = 0
KDC1 120102Z 15005KT 05/M08 A3011 RMK A01 T00481075  RH  041%=      5-min Rain = 0
KDC1 120103Z 16005KT 05/M08 A3012 RMK A01 T00481076  RH  040%=      5-min Rain = 0
KDC1 120104Z 16004KT 05/M08 A3012 RMK A01 T00481076  RH  040%=      5-min Rain = 0
KDC1 120105Z 16005KT 05/M08 A3012 RMK A01 T00481076  RH  040%=      5-min Rain = 0
KDC1 120106Z 16005KT 05/M08 A3012 RMK A01 T00481076  RH  040%=      5-min Rain = 0
KDC1 120107Z 16005KT 05/M08 A3012 RMK A01 T00481076  RH  040%=      5-min Rain = 0
KDC1 120108Z 16005KT 05/M08 A3012 RMK A01 T00471076  RH  040%=      5-min Rain = 0
KDC1 120109Z 16005KT 05/M08 A3012 RMK A01 T00471075  RH  041%=      5-min Rain = 0
KDC1 120110Z 16004KT 05/M08 A3012 RMK A01 T00471075  RH  041%=      5-min Rain = 0
KDC1 120111Z 16005KT 05/M07 A3012 RMK A01 T00471074  RH  041%=      5-min Rain = 0
KDC1 120112Z 16005KT 05/M08 A3012 RMK A01 T00471075  RH  041%=      5-min Rain = 0
KDC1 120113Z 16004KT 05/M07 A3012 RMK A01 T00471074  RH  041%=      5-min Rain = 0
KDC1 120114Z 17005KT 05/M08 A3012 RMK A01 T00471075  RH  041%=      5-min Rain = 0
KDC1 120115Z 17004KT 05/M08 A3012 RMK A01 T00481075  RH  041%=      5-min Rain = 0
KDC1 120116Z 17005KT 05/M08 A3012 RMK A01 T00481075  RH  041%=      5-min Rain = 0
KDC1 120117Z 17004KT 05/M08 A3012 RMK A01 T00481076  RH  040%=      5-min Rain = 0
KDC1 120118Z 17004KT 05/M08 A3012 RMK A01 T00481077  RH  040%=      5-min Rain = 0
KDC1 120119Z 17005KT 05/M08 A3012 RMK A01 T00471077  RH  040%=      5-min Rain = 0
KDC1 120120Z 18004KT 05/M08 A3012 RMK A01 T00471077  RH  040%=      5-min Rain = 0
KDC1 120121Z 17004KT 05/M08 A3012 RMK A01 T00471077  RH  040%=      5-min Rain = 0
KDC1 120122Z 17005KT 05/M08 A3012 RMK A01 T00461077  RH  040%=      5-min Rain = 0
KDC1 120123Z 17005KT 05/M08 A3012 RMK A01 T00461077  RH  040%=      5-min Rain = 0
KDC1 120124Z 17004KT 05/M08 A3012 RMK A01 T00471077  RH  040%=      5-min Rain = 0
KDC1 120125Z 17004KT 05/M08 A3012 RMK A01 T00461076  RH  041%=      5-min Rain = 0
KDC1 120126Z 17004KT 05/M08 A3012 RMK A01 T00461077  RH  041%=      5-min Rain = 0
KDC1 120127Z 17003KT 05/M08 A3012 RMK A01 T00461077  RH  041%=      5-min Rain = 0
KDC1 120128Z 18003KT 05/M08 A3012 RMK A01 T00461077  RH  041%=      5-min Rain = 0
KDC1 120129Z 18004KT 05/M08 A3012 RMK A01 T00461076  RH  041%=      5-min Rain = 0
KDC1 120130Z 18003KT 05/M08 A3012 RMK A01 T00451077  RH  041%=      5-min Rain = 0
KDC1 120131Z 17004KT 05/M08 A3012 RMK A01 T00451077  RH  041%=      5-min Rain = 0
KDC1 120132Z 18004KT 05/M08 A3012 RMK A01 T00451077  RH  041%=      5-min Rain = 0
KDC1 120133Z 18004KT 05/M08 A3012 RMK A01 T00451077  RH  041%=      5-min Rain = 0
KDC1 120134Z 18004KT 05/M08 A3012 RMK A01 T00451078  RH  040%=      5-min Rain = 0
KDC1 120135Z 18004KT 05/M08 A3012 RMK A01 T00451078  RH  041%=      5-min Rain = 0
KDC1 120136Z 18004KT 05/M08 A3012 RMK A01 T00451078  RH  040%=      5-min Rain = 0
KDC1 120137Z 17004KT 05/M08 A3012 RMK A01 T00451079  RH  040%=      5-min Rain = 0
KDC1 120138Z 18005KT 05/M08 A3012 RMK A01 T00451079  RH  040%=      5-min Rain = 0
KDC1 120139Z 18004KT 05/M08 A3012 RMK A01 T00451080  RH  040%=      5-min Rain = 0
KDC1 120140Z 18004KT 05/M08 A3012 RMK A01 T00451080  RH  040%=      5-min Rain = 0
KDC1 120141Z 18004KT 05/M08 A3012 RMK A01 T00461080  RH  040%=      5-min Rain = 0
KDC1 120142Z 18004KT 05/M08 A3012 RMK A01 T00451081  RH  040%=      5-min Rain = 0
KDC1 120143Z 18005KT 05/M08 A3012 RMK A01 T00451081  RH  039%=      5-min Rain = 0
KDC1 120144Z 18005KT 04/M08 A3012 RMK A01 T00441081  RH  040%=      5-min Rain = 0
KDC1 120145Z 18005KT 05/M08 A3012 RMK A01 T00451081  RH  040%=      5-min Rain = 0
KDC1 120146Z 18005KT 04/M08 A3012 RMK A01 T00441081  RH  040%=      5-min Rain = 0
KDC1 120147Z 18006KT 04/M08 A3012 RMK A01 T00441081  RH  040%=      5-min Rain = 0
KDC1 120148Z 18005KT 04/M08 A3012 RMK A01 T00441081  RH  040%=      5-min Rain = 0
KDC1 120149Z 17005KT 04/M08 A3012 RMK A01 T00441082  RH  040%=      5-min Rain = 0
KDC1 120150Z 17006KT 04/M08 A3012 RMK A01 T00441082  RH  040%=      5-min Rain = 0
KDC1 120151Z 17006KT 04/M08 A3012 RMK A01 T00441081  RH  040%=      5-min Rain = 0
KDC1 120152Z 18006KT 04/M08 A3012 RMK A01 T00441081  RH  040%=      5-min Rain = 0
KDC1 120153Z 17005KT 04/M08 A3012 RMK A01 T00441082  RH  040%=      5-min Rain = 0
KDC1 120154Z 18005KT 04/M08 A3012 RMK A01 T00441082  RH  040%=      5-min Rain = 0
KDC1 120155Z 18006KT 04/M08 A3012 RMK A01 T00431082  RH  040%=      5-min Rain = 0
KDC1 120156Z 18005KT 04/M08 A3012 RMK A01 T00431081  RH  040%=      5-min Rain = 0
KDC1 120157Z 18005KT 04/M08 A3012 RMK A01 T00441081  RH  040%=      5-min Rain = 0
KDC1 120158Z 17005KT 04/M08 A3012 RMK A01 T00431082  RH  040%=      5-min Rain = 0
KDC1 120159Z 18005KT 04/M08 A3012 RMK A01 T00431081  RH  040%=      5-min Rain = 0
KDC1 120200Z 18006KT 04/M08 A3012 RMK A01 T00431082  RH  040%=      5-min Rain = 0
KDC1 120201Z 18006KT 04/M08 A3012 RMK A01 T00431082  RH  040%=      5-min Rain = 0
KDC1 120202Z 17005KT 04/M08 A3012 RMK A01 T00421082  RH  040%=      5-min Rain = 0
KDC1 120203Z 18004KT 04/M08 A3012 RMK A01 T00421082  RH  040%=      5-min Rain = 0
KDC1 120204Z 18005KT 04/M08 A3012 RMK A01 T00421082  RH  040%=      5-min Rain = 0
KDC1 120205Z 17007KT 04/M08 A3012 RMK A01 T00411081  RH  040%=      5-min Rain = 0
KDC1 120206Z 17006KT 04/M08 A3012 RMK A01 T00411081  RH  041%=      5-min Rain = 0
KDC1 120207Z 17006KT 04/M08 A3012 RMK A01 T00411081  RH  041%=      5-min Rain = 0
KDC1 120208Z 17006KT 04/M08 A3012 RMK A01 T00411081  RH  041%=      5-min Rain = 0
KDC1 120209Z 17005KT 04/M08 A3012 RMK A01 T00401082  RH  041%=      5-min Rain = 0
KDC1 120210Z 17006KT 04/M08 A3012 RMK A01 T00391082  RH  041%=      5-min Rain = 0
KDC1 120211Z 17006KT 04/M08 A3012 RMK A01 T00391081  RH  041%=      5-min Rain = 0
KDC1 120212Z 17006KT 04/M08 A3012 RMK A01 T00381082  RH  041%=      5-min Rain = 0
KDC1 120213Z 17006KT 04/M08 A3012 RMK A01 T00381081  RH  041%=      5-min Rain = 0
KDC1 120214Z 17005KT 04/M08 A3012 RMK A01 T00381081  RH  041%=      5-min Rain = 0
KDC1 120215Z 17006KT 04/M08 A3012 RMK A01 T00371081  RH  042%=      5-min Rain = 0
KDC1 120216Z 17006KT 04/M08 A3012 RMK A01 T00371081  RH  042%=      5-min Rain = 0
KDC1 120217Z 17005KT 04/M08 A3012 RMK A01 T00371081  RH  042%=      5-min Rain = 0
KDC1 120218Z 17005KT 04/M08 A3012 RMK A01 T00371080  RH  042%=      5-min Rain = 0
KDC1 120219Z 17006KT 04/M08 A3012 RMK A01 T00371080  RH  042%=      5-min Rain = 0
KDC1 120220Z 18005KT 04/M08 A3012 RMK A01 T00361081  RH  042%=      5-min Rain = 0
KDC1 120221Z 18006KT 04/M08 A3012 RMK A01 T00361081  RH  042%=      5-min Rain = 0
KDC1 120222Z 17005KT 04/M08 A3012 RMK A01 T00351080  RH  042%=      5-min Rain = 0
KDC1 120223Z 17006KT 04/M08 A3012 RMK A01 T00351081  RH  042%=      5-min Rain = 0
KDC1 120224Z 17006KT 04/M08 A3012 RMK A01 T00351080  RH  043%=      5-min Rain = 0
KDC1 120225Z 17006KT 04/M08 A3012 RMK A01 T00351080  RH  043%=      5-min Rain = 0
KDC1 120226Z 17006KT 03/M08 A3012 RMK A01 T00341080  RH  043%=      5-min Rain = 0
KDC1 120227Z 17006KT 03/M08 A3012 RMK A01 T00341081  RH  043%=      5-min Rain = 0
KDC1 120228Z 17005KT 03/M08 A3012 RMK A01 T00341081  RH  043%=      5-min Rain = 0
KDC1 120229Z 17006KT 03/M08 A3012 RMK A01 T00341080  RH  043%=      5-min Rain = 0
KDC1 120230Z 18006KT 03/M08 A3012 RMK A01 T00331080  RH  043%=      5-min Rain = 0
KDC1 120231Z 17006KT 03/M08 A3012 RMK A01 T00331080  RH  043%=      5-min Rain = 0
KDC1 120232Z 17007KT 03/M08 A3012 RMK A01 T00331080  RH  043%=      5-min Rain = 0
KDC1 120233Z 17006KT 03/M08 A3012 RMK A01 T00331080  RH  043%=      5-min Rain = 0
KDC1 120234Z 17006KT 03/M08 A3012 RMK A01 T00321080  RH  043%=      5-min Rain = 0
KDC1 120235Z 17006KT 03/M08 A3012 RMK A01 T00321080  RH  044%=      5-min Rain = 0
KDC1 120236Z 17007KT 03/M08 A3012 RMK A01 T00321080  RH  044%=      5-min Rain = 0
KDC1 120237Z 17006KT 03/M08 A3012 RMK A01 T00321080  RH  044%=      5-min Rain = 0
KDC1 120238Z 17007KT 03/M08 A3012 RMK A01 T00321080  RH  044%=      5-min Rain = 0
KDC1 120239Z 17007KT 03/M08 A3012 RMK A01 T00311080  RH  044%=      5-min Rain = 0
KDC1 120240Z 17008KT 03/M08 A3012 RMK A01 T00311080  RH  044%=      5-min Rain = 0
KDC1 120241Z 17007KT 03/M08 A3012 RMK A01 T00311080  RH  044%=      5-min Rain = 0
KDC1 120242Z 17007KT 03/M08 A3012 RMK A01 T00311079  RH  044%=      5-min Rain = 0
KDC1 120243Z 17005KT 03/M08 A3012 RMK A01 T00301079  RH  044%=      5-min Rain = 0
KDC1 120244Z 17006KT 03/M08 A3013 RMK A01 T00301080  RH  044%=      5-min Rain = 0
KDC1 120245Z 17007KT 03/M08 A3013 RMK A01 T00301079  RH  044%=      5-min Rain = 0
KDC1 120246Z 17007KT 03/M08 A3013 RMK A01 T00291080  RH  045%=      5-min Rain = 0
KDC1 120247Z 17006KT 03/M08 A3013 RMK A01 T00291080  RH  045%=      5-min Rain = 0
KDC1 120248Z 17007KT 03/M08 A3013 RMK A01 T00291080  RH  045%=      5-min Rain = 0
KDC1 120249Z 17007KT 03/M08 A3013 RMK A01 T00291080  RH  045%=      5-min Rain = 0
KDC1 120250Z 17007KT 03/M08 A3013 RMK A01 T00291080  RH  045%=      5-min Rain = 0
KDC1 120251Z 16007KT 03/M08 A3013 RMK A01 T00291080  RH  045%=      5-min Rain = 0
KDC1 120252Z 16007KT 03/M08 A3013 RMK A01 T00291080  RH  045%=      5-min Rain = 0
KDC1 120253Z 16006KT 03/M08 A3013 RMK A01 T00281080  RH  045%=      5-min Rain = 0
KDC1 120254Z 16007KT 03/M08 A3013 RMK A01 T00281079  RH  045%=      5-min Rain = 0
KDC1 120255Z 16007KT 03/M08 A3013 RMK A01 T00281078  RH  046%=      5-min Rain = 0
KDC1 120256Z 16007KT 03/M08 A3013 RMK A01 T00271079  RH  045%=      5-min Rain = 0
KDC1 120257Z 16007KT 03/M08 A3013 RMK A01 T00271079  RH  045%=      5-min Rain = 0
KDC1 120258Z 16008KT 03/M08 A3013 RMK A01 T00271079  RH  045%=      5-min Rain = 0
KDC1 120259Z 16006KT 03/M08 A3013 RMK A01 T00271079  RH  046%=      5-min Rain = 0
KDC1 120300Z 16007KT 03/M08 A3013 RMK A01 T00271079  RH  046%=      5-min Rain = 0
KDC1 120301Z 16007KT 03/M08 A3013 RMK A01 T00261078  RH  046%=      5-min Rain = 0
KDC1 120302Z 16006KT 03/M08 A3013 RMK A01 T00261078  RH  046%=      5-min Rain = 0
KDC1 120303Z 16007KT 03/M08 A3013 RMK A01 T00261078  RH  046%=      5-min Rain = 0
KDC1 120304Z 16007KT 03/M08 A3013 RMK A01 T00261078  RH  046%=      5-min Rain = 0
KDC1 120305Z 16007KT 03/M08 A3013 RMK A01 T00261078  RH  046%=      5-min Rain = 0
KDC1 120306Z 16007KT 03/M08 A3013 RMK A01 T00261078  RH  046%=      5-min Rain = 0
KDC1 120307Z 16006KT 03/M08 A3013 RMK A01 T00261077  RH  046%=      5-min Rain = 0
KDC1 120308Z 16007KT 03/M08 A3013 RMK A01 T00261078  RH  046%=      5-min Rain = 0
KDC1 120309Z 16007KT 03/M08 A3013 RMK A01 T00261078  RH  046%=      5-min Rain = 0
KDC1 120310Z 16007KT 03/M08 A3013 RMK A01 T00261078  RH  046%=      5-min Rain = 0
KDC1 120311Z 16006KT 03/M08 A3013 RMK A01 T00261078  RH  046%=      5-min Rain = 0
KDC1 120312Z 16008KT 03/M08 A3013 RMK A01 T00261078  RH  046%=      5-min Rain = 0
KDC1 120313Z 17008KT 03/M08 A3013 RMK A01 T00271078  RH  046%=      5-min Rain = 0
KDC1 120314Z 16007KT 03/M08 A3013 RMK A01 T00271078  RH  046%=      5-min Rain = 0
KDC1 120315Z 17007KT 03/M08 A3013 RMK A01 T00271078  RH  046%=      5-min Rain = 0
KDC1 120316Z 16006KT 03/M08 A3013 RMK A01 T00271079  RH  046%=      5-min Rain = 0
KDC1 120317Z 17006KT 03/M08 A3013 RMK A01 T00271080  RH  045%=      5-min Rain = 0
KDC1 120318Z 16007KT 03/M08 A3013 RMK A01 T00271079  RH  045%=      5-min Rain = 0
KDC1 120319Z 16006KT 03/M08 A3013 RMK A01 T00271079  RH  045%=      5-min Rain = 0
KDC1 120320Z 16007KT 03/M08 A3013 RMK A01 T00281079  RH  045%=      5-min Rain = 0
KDC1 120321Z 16007KT 03/M08 A3013 RMK A01 T00271079  RH  045%=      5-min Rain = 0
KDC1 120322Z 16007KT 03/M08 A3013 RMK A01 T00281078  RH  046%=      5-min Rain = 0
KDC1 120323Z 16007KT 03/M08 A3013 RMK A01 T00271078  RH  046%=      5-min Rain = 0
KDC1 120324Z 16007KT 03/M08 A3013 RMK A01 T00271077  RH  046%=      5-min Rain = 0
KDC1 120325Z 17007KT 03/M08 A3013 RMK A01 T00271077  RH  046%=      5-min Rain = 0
KDC1 120326Z 17007KT 03/M08 A3013 RMK A01 T00271076  RH  047%=      5-min Rain = 0
KDC1 120327Z 16007KT 03/M08 A3013 RMK A01 T00271076  RH  047%=      5-min Rain = 0
KDC1 120328Z 16007KT 03/M08 A3013 RMK A01 T00271076  RH  047%=      5-min Rain = 0
KDC1 120329Z 17007KT 03/M08 A3013 RMK A01 T00261076  RH  047%=      5-min Rain = 0
KDC1 120330Z 17008KT 03/M08 A3013 RMK A01 T00261076  RH  047%=      5-min Rain = 0
KDC1 120331Z 17007KT 03/M08 A3013 RMK A01 T00261076  RH  047%=      5-min Rain = 0
KDC1 120332Z 17007KT 03/M08 A3013 RMK A01 T00261077  RH  047%=      5-min Rain = 0
KDC1 120333Z 17007KT 03/M08 A3013 RMK A01 T00261076  RH  047%=      5-min Rain = 0
KDC1 120334Z 17006KT 03/M08 A3013 RMK A01 T00261077  RH  047%=      5-min Rain = 0
KDC1 120335Z 17006KT 03/M08 A3013 RMK A01 T00261077  RH  046%=      5-min Rain = 0
KDC1 120336Z 17006KT 03/M08 A3014 RMK A01 T00261078  RH  046%=      5-min Rain = 0
KDC1 120337Z 17007KT 03/M08 A3014 RMK A01 T00251079  RH  046%=      5-min Rain = 0
KDC1 120338Z 17006KT 03/M08 A3014 RMK A01 T00251079  RH  046%=      5-min Rain = 0
KDC1 120339Z 17007KT 03/M08 A3014 RMK A01 T00251080  RH  046%=      5-min Rain = 0
KDC1 120340Z 17006KT 03/M08 A3014 RMK A01 T00251080  RH  046%=      5-min Rain = 0
KDC1 120341Z 17006KT 03/M08 A3014 RMK A01 T00251080  RH  046%=      5-min Rain = 0
KDC1 120342Z 17006KT 03/M08 A3014 RMK A01 T00251080  RH  046%=      5-min Rain = 0
KDC1 120343Z 18007KT 02/M08 A3014 RMK A01 T00241080  RH  046%=      5-min Rain = 0
KDC1 120344Z 17008KT 02/M08 A3014 RMK A01 T00241080  RH  046%=      5-min Rain = 0
KDC1 120345Z 17007KT 02/M08 A3014 RMK A01 T00241080  RH  046%=      5-min Rain = 0
KDC1 120346Z 17007KT 02/M08 A3014 RMK A01 T00241080  RH  046%=      5-min Rain = 0
KDC1 120347Z 17007KT 02/M08 A3014 RMK A01 T00241079  RH  046%=      5-min Rain = 0
KDC1 120348Z 17007KT 02/M08 A3014 RMK A01 T00241079  RH  047%=      5-min Rain = 0
KDC1 120349Z 17008KT 03/M08 A3014 RMK A01 T00251079  RH  046%=      5-min Rain = 0
KDC1 120350Z 17007KT 03/M08 A3014 RMK A01 T00251078  RH  047%=      5-min Rain = 0
KDC1 120351Z 17006KT 02/M08 A3014 RMK A01 T00241078  RH  047%=      5-min Rain = 0
KDC1 120352Z 17007KT 02/M08 A3014 RMK A01 T00241079  RH  047%=      5-min Rain = 0
KDC1 120353Z 17007KT 02/M08 A3014 RMK A01 T00241079  RH  046%=      5-min Rain = 0
KDC1 120354Z 17006KT 02/M08 A3014 RMK A01 T00241079  RH  046%=      5-min Rain = 0
KDC1 120355Z 17006KT 02/M08 A3014 RMK A01 T00241079  RH  046%=      5-min Rain = 0
KDC1 120356Z 17006KT 02/M08 A3014 RMK A01 T00241080  RH  046%=      5-min Rain = 0
KDC1 120357Z 17007KT 02/M08 A3014 RMK A01 T00241081  RH  046%=      5-min Rain = 0
KDC1 120358Z 17007KT 02/M08 A3014 RMK A01 T00241081  RH  046%=      5-min Rain = 0
KDC1 120359Z 18006KT 02/M08 A3014 RMK A01 T00241081  RH  046%=      5-min Rain = 0
KDC1 120400Z 17007KT 02/M08 A3014 RMK A01 T00241081  RH  046%=      5-min Rain = 0
KDC1 120401Z 17008KT 02/M08 A3014 RMK A01 T00231082  RH  046%=      5-min Rain = 0
KDC1 120402Z 17007KT 02/M08 A3014 RMK A01 T00241081  RH  046%=      5-min Rain = 0
KDC1 120403Z 17006KT 02/M08 A3014 RMK A01 T00241081  RH  046%=      5-min Rain = 0
KDC1 120404Z 18006KT 02/M08 A3014 RMK A01 T00241082  RH  046%=      5-min Rain = 0
KDC1 120405Z 17006KT 02/M08 A3014 RMK A01 T00241082  RH  046%=      5-min Rain = 0
KDC1 120406Z 17006KT 02/M08 A3014 RMK A01 T00241082  RH  046%=      5-min Rain = 0
KDC1 120407Z 17008KT 02/M08 A3014 RMK A01 T00241082  RH  046%=      5-min Rain = 0
KDC1 120408Z 17006KT 02/M08 A3014 RMK A01 T00241082  RH  046%=      5-min Rain = 0
KDC1 120409Z 17007KT 02/M08 A3014 RMK A01 T00241082  RH  046%=      5-min Rain = 0
KDC1 120410Z 17007KT 02/M08 A3014 RMK A01 T00241082  RH  046%=      5-min Rain = 0
KDC1 120411Z 16008KT 02/M08 A3014 RMK A01 T00241081  RH  046%=      5-min Rain = 0
KDC1 120412Z 16007KT 02/M08 A3014 RMK A01 T00231081  RH  046%=      5-min Rain = 0
KDC1 120413Z 17006KT 02/M08 A3014 RMK A01 T00241081  RH  046%=      5-min Rain = 0
KDC1 120414Z 16006KT 02/M08 A3014 RMK A01 T00231081  RH  046%=      5-min Rain = 0
KDC1 120415Z 17006KT 02/M08 A3014 RMK A01 T00231081  RH  046%=      5-min Rain = 0
KDC1 120416Z 17006KT 02/M08 A3014 RMK A01 T00231081  RH  046%=      5-min Rain = 0
KDC1 120417Z 18006KT 02/M08 A3014 RMK A01 T00221081  RH  046%=      5-min Rain = 0
KDC1 120418Z 17006KT 02/M08 A3014 RMK A01 T00221081  RH  046%=      5-min Rain = 0
KDC1 120419Z 17005KT 02/M08 A3014 RMK A01 T00221081  RH  046%=      5-min Rain = 0
KDC1 120420Z 18006KT 02/M08 A3014 RMK A01 T00221081  RH  046%=      5-min Rain = 0
KDC1 120421Z 17007KT 02/M08 A3014 RMK A01 T00221081  RH  046%=      5-min Rain = 0
KDC1 120422Z 17006KT 02/M08 A3014 RMK A01 T00221081  RH  046%=      5-min Rain = 0
KDC1 120423Z 17006KT 02/M08 A3014 RMK A01 T00221081  RH  046%=      5-min Rain = 0
KDC1 120424Z 17007KT 02/M08 A3014 RMK A01 T00221081  RH  046%=      5-min Rain = 0
KDC1 120425Z 17006KT 02/M08 A3014 RMK A01 T00221081  RH  046%=      5-min Rain = 0
KDC1 120426Z 17007KT 02/M08 A3014 RMK A01 T00221081  RH  046%=      5-min Rain = 0
KDC1 120427Z 17006KT 02/M08 A3014 RMK A01 T00221081  RH  047%=      5-min Rain = 0
KDC1 120428Z 17007KT 02/M08 A3014 RMK A01 T00221081  RH  047%=      5-min Rain = 0
KDC1 120429Z 17007KT 02/M08 A3014 RMK A01 T00221081  RH  047%=      5-min Rain = 0
KDC1 120430Z 17007KT 02/M08 A3014 RMK A01 T00221080  RH  047%=      5-min Rain = 0
KDC1 120431Z 17006KT 02/M08 A3014 RMK A01 T00221079  RH  047%=      5-min Rain = 0
KDC1 120432Z 17006KT 02/M08 A3014 RMK A01 T00221079  RH  047%=      5-min Rain = 0
KDC1 120433Z 17006KT 02/M08 A3014 RMK A01 T00211080  RH  047%=      5-min Rain = 0
KDC1 120434Z 17006KT 02/M08 A3014 RMK A01 T00211080  RH  047%=      5-min Rain = 0
KDC1 120435Z 17006KT 02/M08 A3014 RMK A01 T00211079  RH  048%=      5-min Rain = 0
KDC1 120436Z 18006KT 02/M08 A3014 RMK A01 T00211079  RH  048%=      5-min Rain = 0
KDC1 120437Z 17007KT 02/M08 A3014 RMK A01 T00211079  RH  048%=      5-min Rain = 0
KDC1 120438Z 17006KT 02/M08 A3014 RMK A01 T00211080  RH  047%=      5-min Rain = 0
KDC1 120439Z 17007KT 02/M08 A3014 RMK A01 T00211080  RH  047%=      5-min Rain = 0
KDC1 120440Z 17007KT 02/M08 A3014 RMK A01 T00211080  RH  047%=      5-min Rain = 0
KDC1 120441Z 17007KT 02/M08 A3014 RMK A01 T00211080  RH  047%=      5-min Rain = 0
KDC1 120442Z 17007KT 02/M08 A3014 RMK A01 T00211080  RH  047%=      5-min Rain = 0
KDC1 120443Z 17007KT 02/M08 A3014 RMK A01 T00211080  RH  047%=      5-min Rain = 0
KDC1 120444Z 17007KT 02/M08 A3014 RMK A01 T00211081  RH  047%=      5-min Rain = 0
KDC1 120445Z 17008KT 02/M08 A3014 RMK A01 T00211080  RH  047%=      5-min Rain = 0
KDC1 120446Z 17006KT 02/M08 A3014 RMK A01 T00211081  RH  047%=      5-min Rain = 0
KDC1 120447Z 17006KT 02/M08 A3014 RMK A01 T00211081  RH  047%=      5-min Rain = 0
KDC1 120448Z 17007KT 02/M08 A3014 RMK A01 T00211081  RH  047%=      5-min Rain = 0
KDC1 120449Z 17006KT 02/M08 A3014 RMK A01 T00211081  RH  047%=      5-min Rain = 0
KDC1 120450Z 17007KT 02/M08 A3014 RMK A01 T00211081  RH  047%=      5-min Rain = 0
KDC1 120451Z 17006KT 02/M08 A3014 RMK A01 T00211081  RH  047%=      5-min Rain = 0
KDC1 120452Z 17007KT 02/M08 A3014 RMK A01 T00211081  RH  047%=      5-min Rain = 0
KDC1 120453Z 17006KT 02/M08 A3014 RMK A01 T00201081  RH  047%=      5-min Rain = 0
KDC1 120454Z 16005KT 02/M08 A3014 RMK A01 T00201081  RH  047%=      5-min Rain = 0
KDC1 120455Z 17007KT 02/M08 A3014 RMK A01 T00201082  RH  047%=      5-min Rain = 0
KDC1 120456Z 17006KT 02/M08 A3014 RMK A01 T00191081  RH  047%=      5-min Rain = 0
KDC1 120457Z 17006KT 02/M08 A3014 RMK A01 T00201081  RH  047%=      5-min Rain = 0
KDC1 120458Z 17007KT 02/M08 A3015 RMK A01 T00191082  RH  047%=      5-min Rain = 0
KDC1 120459Z 17006KT 02/M08 A3015 RMK A01 T00191081  RH  047%=      5-min Rain = 0
KDC1 120500Z 17005KT 02/M08 A3015 RMK A01 T00191081  RH  047%=      5-min Rain = 0
KDC1 120501Z 17005KT 02/M08 A3015 RMK A01 T00191082  RH  047%=      5-min Rain = 0
KDC1 120502Z 17005KT 02/M08 A3015 RMK A01 T00181082  RH  047%=      5-min Rain = 0
KDC1 120503Z 17006KT 02/M08 A3015 RMK A01 T00181082  RH  047%=      5-min Rain = 0
KDC1 120504Z 17005KT 02/M08 A3015 RMK A01 T00181083  RH  047%=      5-min Rain = 0
KDC1 120505Z 17005KT 02/M08 A3014 RMK A01 T00181083  RH  047%=      5-min Rain = 0
KDC1 120506Z 17005KT 02/M08 A3015 RMK A01 T00181084  RH  047%=      5-min Rain = 0
KDC1 120507Z 17004KT 02/M08 A3015 RMK A01 T00191084  RH  047%=      5-min Rain = 0
KDC1 120508Z 18005KT 02/M08 A3015 RMK A01 T00181084  RH  047%=      5-min Rain = 0
KDC1 120509Z 18004KT 02/M08 A3015 RMK A01 T00181084  RH  047%=      5-min Rain = 0
KDC1 120510Z 18004KT 02/M08 A3015 RMK A01 T00181084  RH  047%=      5-min Rain = 0
KDC1 120511Z 18004KT 02/M08 A3015 RMK A01 T00181084  RH  047%=      5-min Rain = 0
KDC1 120512Z 19003KT 02/M08 A3015 RMK A01 T00181084  RH  047%=      5-min Rain = 0
KDC1 120513Z 18003KT 02/M08 A3015 RMK A01 T00181084  RH  047%=      5-min Rain = 0
KDC1 120514Z 18004KT 02/M09 A3015 RMK A01 T00171085  RH  047%=      5-min Rain = 0
KDC1 120515Z 19004KT 02/M08 A3015 RMK A01 T00181084  RH  047%=      5-min Rain = 0
KDC1 120516Z 18003KT 02/M08 A3015 RMK A01 T00181084  RH  047%=      5-min Rain = 0
KDC1 120517Z 18004KT 02/M08 A3015 RMK A01 T00181084  RH  047%=      5-min Rain = 0
KDC1 120518Z 18002KT 02/M08 A3015 RMK A01 T00171084  RH  047%=      5-min Rain = 0
KDC1 120519Z 18003KT 02/M08 A3015 RMK A01 T00171084  RH  047%=      5-min Rain = 0
KDC1 120520Z 17003KT 02/M08 A3015 RMK A01 T00171084  RH  047%=      5-min Rain = 0
KDC1 120521Z 17002KT 02/M08 A3015 RMK A01 T00181084  RH  047%=      5-min Rain = 0
KDC1 120522Z 17002KT 02/M08 A3015 RMK A01 T00171084  RH  047%=      5-min Rain = 0
KDC1 120523Z 17003KT 02/M09 A3015 RMK A01 T00161085  RH  047%=      5-min Rain = 0
KDC1 120524Z 17002KT 02/M08 A3015 RMK A01 T00161084  RH  047%=      5-min Rain = 0
KDC1 120525Z 19002KT 02/M08 A3015 RMK A01 T00161083  RH  048%=      5-min Rain = 0
KDC1 120526Z 18003KT 02/M08 A3015 RMK A01 T00161082  RH  048%=      5-min Rain = 0
KDC1 120527Z 19004KT 02/M08 A3015 RMK A01 T00161082  RH  048%=      5-min Rain = 0
KDC1 120528Z 19003KT 02/M08 A3015 RMK A01 T00161082  RH  048%=      5-min Rain = 0
KDC1 120529Z 18003KT 02/M08 A3015 RMK A01 T00161081  RH  048%=      5-min Rain = 0
KDC1 120530Z 19002KT 02/M08 A3015 RMK A01 T00161082  RH  048%=      5-min Rain = 0
KDC1 120531Z 19003KT 02/M08 A3015 RMK A01 T00161082  RH  048%=      5-min Rain = 0
KDC1 120532Z 18003KT 02/M08 A3015 RMK A01 T00151082  RH  048%=      5-min Rain = 0
KDC1 120533Z 18002KT 02/M08 A3015 RMK A01 T00161082  RH  048%=      5-min Rain = 0
KDC1 120534Z 20001KT 02/M08 A3015 RMK A01 T00161083  RH  048%=      5-min Rain = 0
KDC1 120535Z 17003KT 02/M08 A3015 RMK A01 T00161083  RH  048%=      5-min Rain = 0
KDC1 120536Z 18003KT 02/M08 A3015 RMK A01 T00161084  RH  048%=      5-min Rain = 0
KDC1 120537Z 18003KT 02/M08 A3015 RMK A01 T00161084  RH  047%=      5-min Rain = 0
KDC1 120538Z 19003KT 02/M08 A3015 RMK A01 T00161084  RH  047%=      5-min Rain = 0
KDC1 120539Z 18004KT 02/M09 A3015 RMK A01 T00161085  RH  047%=      5-min Rain = 0
KDC1 120540Z 19004KT 02/M09 A3015 RMK A01 T00161085  RH  047%=      5-min Rain = 0
KDC1 120541Z 20003KT 02/M09 A3015 RMK A01 T00161085  RH  047%=      5-min Rain = 0
KDC1 120542Z 20004KT 02/M09 A3015 RMK A01 T00161085  RH  047%=      5-min Rain = 0
KDC1 120543Z 20004KT 02/M09 A3015 RMK A01 T00161085  RH  047%=      5-min Rain = 0
KDC1 120544Z 22003KT 02/M09 A3015 RMK A01 T00171085  RH  047%=      5-min Rain = 0
KDC1 120545Z 21002KT 02/M08 A3015 RMK A01 T00161084  RH  047%=      5-min Rain = 0
KDC1 120546Z 22002KT 02/M08 A3015 RMK A01 T00161081  RH  049%=      5-min Rain = 0
KDC1 120547Z 21002KT 02/M08 A3015 RMK A01 T00151078  RH  050%=      5-min Rain = 0
KDC1 120548Z 22003KT 01/M08 A3015 RMK A01 T00141078  RH  051%=      5-min Rain = 0
KDC1 120549Z 21003KT 01/M08 A3015 RMK A01 T00131077  RH  051%=      5-min Rain = 0
KDC1 120550Z 21003KT 01/M08 A3015 RMK A01 T00131077  RH  051%=      5-min Rain = 0
KDC1 120551Z 20002KT 01/M08 A3015 RMK A01 T00131078  RH  051%=      5-min Rain = 0
KDC1 120552Z 21003KT 01/M08 A3015 RMK A01 T00121078  RH  051%=      5-min Rain = 0
KDC1 120553Z 20004KT 01/M08 A3015 RMK A01 T00121078  RH  051%=      5-min Rain = 0
KDC1 120554Z 19004KT 01/M08 A3015 RMK A01 T00131080  RH  050%=      5-min Rain = 0
KDC1 120555Z 19005KT 01/M08 A3015 RMK A01 T00141081  RH  049%=      5-min Rain = 0
KDC1 120556Z 19005KT 02/M08 A3015 RMK A01 T00151083  RH  048%=      5-min Rain = 0
KDC1 120557Z 18005KT 02/M08 A3015 RMK A01 T00151084  RH  048%=      5-min Rain = 0
KDC1 120558Z 18006KT 02/M09 A3015 RMK A01 T00151085  RH  048%=      5-min Rain = 0
KDC1 120559Z 17005KT 02/M09 A3015 RMK A01 T00151085  RH  048%=      5-min Rain = 0

Page generated in 0.1411 seconds.